Time,TemperatureF,DewpointF,PressureIn,WindDirection,WindDirectionDegrees,WindSpeedMPH,WindSpeedGustMPH,Humidity,HourlyPrecipIn,Conditions,Clouds,dailyrainin,SoftwareType,DateUTC
2013-05-05 00:00:00,34.5,33.0,30.23,ENE,60,3.6,4.5,94,0.00,,---,0.00,VWS V13.01,2013-05-05 05:00:00,
2013-05-05 00:01:00,34.5,33.0,30.23,NNE,30,2.7,4.7,94,0.00,,---,0.00,VWS V13.01,2013-05-05 05:01:00,
2013-05-05 00:02:00,34.5,33.0,30.23,NNE,28,4.0,4.7,94,0.00,,---,0.00,VWS V13.01,2013-05-05 05:02:00,
2013-05-05 00:03:00,34.5,33.0,30.23,ENE,64,3.1,4.7,94,0.00,,---,0.00,VWS V13.01,2013-05-05 05:03:00,
2013-05-05 00:04:00,34.5,33.0,30.23,ENE,69,3.1,4.0,94,0.00,,---,0.00,VWS V13.01,2013-05-05 05:04:00,
2013-05-05 00:05:00,34.5,33.0,30.23,NNE,33,5.6,5.6,94,0.00,,---,0.00,VWS V13.01,2013-05-05 05:05:00,
2013-05-05 00:06:00,34.5,33.0,30.23,NE,56,4.5,5.6,94,0.00,,---,0.00,VWS V13.01,2013-05-05 05:06:00,
2013-05-05 00:07:00,34.5,33.0,30.23,East,93,5.1,5.6,94,0.00,,---,0.00,VWS V13.01,2013-05-05 05:07:00,
2013-05-05 00:08:00,34.5,33.0,30.23,NE,49,4.0,4.0,94,0.00,,---,0.00,VWS V13.01,2013-05-05 05:08:00,
2013-05-05 00:09:00,34.5,33.0,30.23,East,83,3.6,4.0,94,0.00,,---,0.00,VWS V13.01,2013-05-05 05:09:00,
2013-05-05 00:10:00,34.5,33.0,30.23,ENE,64,4.0,4.7,94,0.00,,---,0.00,VWS V13.01,2013-05-05 05:10:00,
2013-05-05 00:11:00,34.5,33.0,30.26,ENE,78,3.6,5.1,94,0.00,,---,0.00,VWS V13.01,2013-05-05 05:11:00,
2013-05-05 00:12:00,34.5,33.0,30.26,ENE,70,3.1,5.1,94,0.00,,---,0.00,VWS V13.01,2013-05-05 05:12:00,
2013-05-05 00:13:00,34.5,33.0,30.26,ENE,69,2.7,4.0,94,0.00,,---,0.00,VWS V13.01,2013-05-05 05:13:00,
2013-05-05 00:14:00,34.5,33.0,30.26,ENE,68,0.0,4.7,94,0.00,,---,0.00,VWS V13.01,2013-05-05 05:14:00,
2013-05-05 00:15:00,34.5,33.0,30.26,NNE,12,4.5,5.6,94,0.00,,---,0.00,VWS V13.01,2013-05-05 05:15:00,
2013-05-05 00:16:00,34.5,33.0,30.26,NE,37,6.0,6.0,94,0.00,,---,0.00,VWS V13.01,2013-05-05 05:16:00,
2013-05-05 00:17:00,34.5,33.0,30.26,NNE,32,5.1,5.6,94,0.00,,---,0.00,VWS V13.01,2013-05-05 05:17:00,
2013-05-05 00:18:00,34.5,33.0,30.26,NE,50,3.6,5.6,94,0.00,,---,0.00,VWS V13.01,2013-05-05 05:18:00,
2013-05-05 00:19:00,34.5,33.0,30.26,NE,53,4.0,4.7,94,0.00,,---,0.00,VWS V13.01,2013-05-05 05:19:00,
2013-05-05 00:20:00,34.5,33.0,30.26,NNE,33,4.5,4.5,94,0.00,,---,0.00,VWS V13.01,2013-05-05 05:20:00,
2013-05-05 00:21:00,34.5,33.0,30.26,North,8,3.1,4.5,94,0.00,,---,0.00,VWS V13.01,2013-05-05 05:21:00,
2013-05-05 00:22:00,34.5,33.0,30.26,NNE,14,4.5,4.5,94,0.00,,---,0.00,VWS V13.01,2013-05-05 05:22:00,
2013-05-05 00:23:00,34.5,33.0,30.26,East,89,3.6,5.1,94,0.00,,---,0.00,VWS V13.01,2013-05-05 05:23:00,
2013-05-05 00:24:00,34.5,33.0,30.26,NE,42,4.0,4.0,94,0.00,,---,0.00,VWS V13.01,2013-05-05 05:24:00,
2013-05-05 00:25:00,34.5,33.0,30.23,East,91,3.6,4.7,94,0.00,,---,0.00,VWS V13.01,2013-05-05 05:25:00,
2013-05-05 00:26:00,34.5,33.0,30.23,ENE,65,4.5,4.5,94,0.00,,---,0.00,VWS V13.01,2013-05-05 05:26:00,
2013-05-05 00:27:00,34.5,33.0,30.23,ENE,65,4.5,4.5,94,0.00,,---,0.00,VWS V13.01,2013-05-05 05:27:00,
2013-05-05 00:28:00,34.5,33.0,30.23,East,93,3.6,3.6,94,0.00,,---,0.00,VWS V13.01,2013-05-05 05:28:00,
2013-05-05 00:29:00,34.5,33.0,30.23,ENE,63,4.0,4.0,94,0.00,,---,0.00,VWS V13.01,2013-05-05 05:29:00,
2013-05-05 00:30:00,34.5,33.0,30.23,East,101,3.6,4.0,94,0.00,,---,0.00,VWS V13.01,2013-05-05 05:30:00,
2013-05-05 00:31:00,34.5,33.0,30.23,NE,44,4.5,4.7,94,0.00,,---,0.00,VWS V13.01,2013-05-05 05:31:00,
2013-05-05 00:32:00,34.5,33.0,30.23,NE,41,4.7,4.7,94,0.00,,---,0.00,VWS V13.01,2013-05-05 05:32:00,
2013-05-05 00:33:00,34.5,33.0,30.23,NE,51,4.0,4.0,94,0.00,,---,0.00,VWS V13.01,2013-05-05 05:33:00,
2013-05-05 00:34:00,34.5,33.0,30.23,NNE,25,4.7,4.7,94,0.00,,---,0.00,VWS V13.01,2013-05-05 05:34:00,
2013-05-05 00:35:00,34.5,33.0,30.23,ENE,76,3.1,5.1,94,0.00,,---,0.00,VWS V13.01,2013-05-05 05:35:00,
2013-05-05 00:36:00,34.5,33.0,30.23,NE,50,3.1,3.6,94,0.00,,---,0.00,VWS V13.01,2013-05-05 05:36:00,
2013-05-05 00:37:00,34.5,33.0,30.23,NNE,22,3.6,3.6,94,0.00,,---,0.00,VWS V13.01,2013-05-05 05:37:00,
2013-05-05 00:38:00,34.5,33.0,30.23,ENE,71,2.7,3.6,94,0.00,,---,0.00,VWS V13.01,2013-05-05 05:38:00,
2013-05-05 00:39:00,34.5,33.0,30.23,East,91,3.6,4.7,94,0.00,,---,0.00,VWS V13.01,2013-05-05 05:39:00,
2013-05-05 00:40:00,34.5,33.0,30.23,NNE,19,3.1,3.6,94,0.00,,---,0.00,VWS V13.01,2013-05-05 05:40:00,
2013-05-05 00:41:00,34.5,33.0,30.23,NE,46,4.7,4.7,94,0.00,,---,0.00,VWS V13.01,2013-05-05 05:41:00,
2013-05-05 00:42:00,34.5,33.0,30.23,NE,51,3.1,3.1,94,0.00,,---,0.00,VWS V13.01,2013-05-05 05:42:00,
2013-05-05 00:43:00,34.5,33.0,30.23,ENE,77,4.5,5.1,94,0.00,,---,0.00,VWS V13.01,2013-05-05 05:43:00,
2013-05-05 00:44:00,34.5,33.0,30.23,ENE,57,4.0,4.7,94,0.00,,---,0.00,VWS V13.01,2013-05-05 05:44:00,
2013-05-05 00:45:00,34.5,33.0,30.23,ENE,74,2.7,4.0,94,0.00,,---,0.00,VWS V13.01,2013-05-05 05:45:00,
2013-05-05 00:46:00,34.3,33.1,30.23,NE,39,4.5,4.5,95,0.00,,---,0.00,VWS V13.01,2013-05-05 05:46:00,
2013-05-05 00:47:00,34.5,33.0,30.23,ENE,71,3.6,3.6,94,0.00,,---,0.00,VWS V13.01,2013-05-05 05:47:00,
2013-05-05 00:48:00,34.3,33.1,30.23,NE,44,3.1,5.6,95,0.00,,---,0.00,VWS V13.01,2013-05-05 05:48:00,
2013-05-05 00:49:00,34.3,33.1,30.23,ESE,111,4.0,4.0,95,0.00,,---,0.00,VWS V13.01,2013-05-05 05:49:00,
2013-05-05 00:50:00,34.3,33.1,30.23,ENE,61,5.1,5.1,95,0.00,,---,0.00,VWS V13.01,2013-05-05 05:50:00,
2013-05-05 00:51:00,34.3,33.1,30.23,NNE,19,4.0,5.1,95,0.00,,---,0.00,VWS V13.01,2013-05-05 05:51:00,
2013-05-05 00:52:00,34.3,33.1,30.23,NE,56,4.0,5.1,95,0.00,,---,0.00,VWS V13.01,2013-05-05 05:52:00,
2013-05-05 00:53:00,34.3,33.1,30.23,ENE,63,3.1,3.6,95,0.00,,---,0.00,VWS V13.01,2013-05-05 05:53:00,
2013-05-05 00:54:00,34.3,33.1,30.23,ENE,71,4.0,4.7,95,0.00,,---,0.00,VWS V13.01,2013-05-05 05:54:00,
2013-05-05 00:55:00,34.3,33.1,30.23,East,81,3.1,4.5,95,0.00,,---,0.00,VWS V13.01,2013-05-05 05:55:00,
2013-05-05 00:56:00,34.3,33.1,30.23,NE,39,4.7,4.7,95,0.00,,---,0.00,VWS V13.01,2013-05-05 05:56:00,
2013-05-05 00:57:00,34.3,33.1,30.23,East,81,3.1,3.1,95,0.00,,---,0.00,VWS V13.01,2013-05-05 05:57:00,
2013-05-05 00:58:00,34.3,33.1,30.23,NE,38,6.5,6.5,95,0.00,,---,0.00,VWS V13.01,2013-05-05 05:58:00,
2013-05-05 00:59:00,34.3,33.1,30.23,SE,142,2.7,6.5,95,0.00,,---,0.00,VWS V13.01,2013-05-05 05:59:00,
2013-05-05 01:00:00,34.3,33.1,30.23,NE,46,5.6,5.6,95,0.00,,---,0.00,VWS V13.01,2013-05-05 06:00:00,
2013-05-05 01:01:00,34.3,33.1,30.23,ENE,61,4.0,5.6,95,0.00,,---,0.00,VWS V13.01,2013-05-05 06:01:00,
2013-05-05 01:02:00,34.3,33.1,30.23,NE,47,4.7,5.6,95,0.00,,---,0.00,VWS V13.01,2013-05-05 06:02:00,
2013-05-05 01:03:00,34.3,33.1,30.23,NE,47,3.1,4.0,95,0.00,,---,0.00,VWS V13.01,2013-05-05 06:03:00,
2013-05-05 01:04:00,34.3,33.1,30.23,NE,48,3.1,4.5,95,0.00,,---,0.00,VWS V13.01,2013-05-05 06:04:00,
2013-05-05 01:05:00,34.3,33.1,30.23,NNE,30,4.7,4.7,95,0.00,,---,0.00,VWS V13.01,2013-05-05 06:05:00,
2013-05-05 01:06:00,34.3,33.1,30.23,NE,42,4.0,4.7,95,0.00,,---,0.00,VWS V13.01,2013-05-05 06:06:00,
2013-05-05 01:07:00,34.3,33.1,30.23,NNE,30,4.7,4.7,95,0.00,,---,0.00,VWS V13.01,2013-05-05 06:07:00,
2013-05-05 01:08:00,34.3,33.1,30.23,NE,56,3.6,4.0,95,0.00,,---,0.00,VWS V13.01,2013-05-05 06:08:00,
2013-05-05 01:09:00,34.3,33.1,30.23,ENE,59,4.7,6.5,95,0.00,,---,0.00,VWS V13.01,2013-05-05 06:09:00,
2013-05-05 01:10:00,34.3,33.1,30.23,NNE,24,4.0,4.7,95,0.00,,---,0.00,VWS V13.01,2013-05-05 06:10:00,
2013-05-05 01:11:00,34.3,33.1,30.23,East,97,0.0,4.5,95,0.00,,---,0.00,VWS V13.01,2013-05-05 06:11:00,
2013-05-05 01:12:00,34.3,33.1,30.23,NE,50,4.5,4.5,95,0.00,,---,0.00,VWS V13.01,2013-05-05 06:12:00,
2013-05-05 01:13:00,34.3,33.1,30.23,NE,50,4.5,4.5,95,0.00,,---,0.00,VWS V13.01,2013-05-05 06:13:00,
2013-05-05 01:14:00,34.3,33.1,30.23,NE,39,5.1,5.1,95,0.00,,---,0.00,VWS V13.01,2013-05-05 06:14:00,
2013-05-05 01:15:00,34.3,33.1,30.23,NE,49,4.0,6.0,95,0.00,,---,0.00,VWS V13.01,2013-05-05 06:15:00,
2013-05-05 01:16:00,34.3,33.1,30.23,NNE,22,4.7,4.7,95,0.00,,---,0.00,VWS V13.01,2013-05-05 06:16:00,
2013-05-05 01:17:00,34.3,33.1,30.23,NE,55,3.6,4.5,95,0.00,,---,0.00,VWS V13.01,2013-05-05 06:17:00,
2013-05-05 01:18:00,34.3,33.1,30.23,NE,55,0.0,0.0,95,0.00,,---,0.00,VWS V13.01,2013-05-05 06:18:00,
2013-05-05 01:19:00,34.3,33.1,30.23,NE,55,0.0,0.0,95,0.00,,---,0.00,VWS V13.01,2013-05-05 06:19:00,
2013-05-05 01:20:00,34.2,32.9,30.23,NE,55,0.0,0.0,95,0.00,,---,0.00,VWS V13.01,2013-05-05 06:20:00,
2013-05-05 01:21:00,34.2,32.9,30.23,East,90,4.0,4.0,95,0.00,,---,0.00,VWS V13.01,2013-05-05 06:21:00,
2013-05-05 01:22:00,34.2,32.9,30.23,NE,55,0.0,0.0,95,0.00,,---,0.00,VWS V13.01,2013-05-05 06:22:00,
2013-05-05 01:23:00,34.2,32.9,30.23,East,90,4.5,5.1,95,0.00,,---,0.00,VWS V13.01,2013-05-05 06:23:00,
2013-05-05 01:24:00,34.2,32.9,30.23,ENE,63,5.1,6.0,95,0.00,,---,0.00,VWS V13.01,2013-05-05 06:24:00,
2013-05-05 01:25:00,34.2,32.9,30.23,NE,41,4.5,5.1,95,0.00,,---,0.00,VWS V13.01,2013-05-05 06:25:00,
2013-05-05 01:26:00,34.2,32.9,30.23,ENE,74,5.1,6.0,95,0.00,,---,0.00,VWS V13.01,2013-05-05 06:26:00,
2013-05-05 01:27:00,34.2,32.9,30.23,NE,56,4.5,4.5,95,0.00,,---,0.00,VWS V13.01,2013-05-05 06:27:00,
2013-05-05 01:28:00,34.2,32.9,30.23,East,84,3.6,5.1,95,0.00,,---,0.00,VWS V13.01,2013-05-05 06:28:00,
2013-05-05 01:29:00,34.2,32.9,30.23,NE,50,2.7,4.5,95,0.00,,---,0.00,VWS V13.01,2013-05-05 06:29:00,
2013-05-05 01:30:00,34.2,32.9,30.23,NE,50,4.5,4.5,95,0.00,,---,0.00,VWS V13.01,2013-05-05 06:30:00,
2013-05-05 01:31:00,34.2,32.9,30.23,NE,50,4.5,4.5,95,0.00,,---,0.00,VWS V13.01,2013-05-05 06:31:00,
2013-05-05 01:32:00,34.2,32.9,30.23,NE,50,4.5,4.5,95,0.00,,---,0.00,VWS V13.01,2013-05-05 06:32:00,
2013-05-05 01:33:00,34.2,32.9,30.23,ENE,68,4.0,4.0,95,0.00,,---,0.00,VWS V13.01,2013-05-05 06:33:00,
2013-05-05 01:34:00,34.2,32.9,30.23,NE,46,4.0,4.5,95,0.00,,---,0.00,VWS V13.01,2013-05-05 06:34:00,
2013-05-05 01:35:00,34.2,32.9,30.23,ENE,71,2.7,4.0,95,0.00,,---,0.00,VWS V13.01,2013-05-05 06:35:00,
2013-05-05 01:36:00,34.2,32.9,30.23,East,94,3.6,3.6,95,0.00,,---,0.00,VWS V13.01,2013-05-05 06:36:00,
2013-05-05 01:37:00,34.2,32.9,30.23,NE,52,4.0,4.0,95,0.00,,---,0.00,VWS V13.01,2013-05-05 06:37:00,
2013-05-05 01:38:00,34.2,32.9,30.23,NE,55,4.0,6.0,95,0.00,,---,0.00,VWS V13.01,2013-05-05 06:38:00,
2013-05-05 01:39:00,34.2,32.9,30.23,NE,55,3.6,4.0,95,0.00,,---,0.00,VWS V13.01,2013-05-05 06:39:00,
2013-05-05 01:40:00,34.2,32.9,30.23,ENE,60,6.0,6.0,95,0.00,,---,0.00,VWS V13.01,2013-05-05 06:40:00,
2013-05-05 01:41:00,34.2,32.9,30.23,NE,48,4.5,6.0,95,0.00,,---,0.00,VWS V13.01,2013-05-05 06:41:00,
2013-05-05 01:42:00,34.2,32.9,30.23,NE,48,4.5,4.5,95,0.00,,---,0.00,VWS V13.01,2013-05-05 06:42:00,
2013-05-05 01:43:00,34.2,32.9,30.23,NE,36,4.0,4.5,95,0.00,,---,0.00,VWS V13.01,2013-05-05 06:43:00,
2013-05-05 01:44:00,34.2,32.9,30.23,NE,44,4.5,4.5,95,0.00,,---,0.00,VWS V13.01,2013-05-05 06:44:00,
2013-05-05 01:45:00,34.2,32.9,30.23,NE,53,3.6,5.1,95,0.00,,---,0.00,VWS V13.01,2013-05-05 06:45:00,
2013-05-05 01:46:00,34.2,32.9,30.23,ENE,63,2.7,4.0,95,0.00,,---,0.00,VWS V13.01,2013-05-05 06:46:00,
2013-05-05 01:47:00,34.2,32.9,30.23,ENE,62,4.0,4.0,95,0.00,,---,0.00,VWS V13.01,2013-05-05 06:47:00,
2013-05-05 01:48:00,34.0,32.7,30.23,NE,36,4.0,4.0,95,0.00,,---,0.00,VWS V13.01,2013-05-05 06:48:00,
2013-05-05 01:49:00,34.0,32.7,30.23,ENE,61,3.1,4.5,95,0.00,,---,0.00,VWS V13.01,2013-05-05 06:49:00,
2013-05-05 01:50:00,34.0,32.7,30.23,East,86,3.6,4.0,95,0.00,,---,0.00,VWS V13.01,2013-05-05 06:50:00,
2013-05-05 01:51:00,34.0,32.7,30.23,NNE,28,4.0,5.6,95,0.00,,---,0.00,VWS V13.01,2013-05-05 06:51:00,
2013-05-05 01:52:00,34.0,32.7,30.23,NNE,28,4.0,4.0,95,0.00,,---,0.00,VWS V13.01,2013-05-05 06:52:00,
2013-05-05 01:53:00,34.0,32.7,30.23,East,89,0.0,3.6,95,0.00,,---,0.00,VWS V13.01,2013-05-05 06:53:00,
2013-05-05 01:54:00,34.0,32.7,30.23,NE,49,3.6,4.5,95,0.00,,---,0.00,VWS V13.01,2013-05-05 06:54:00,
2013-05-05 01:55:00,34.0,32.7,30.23,NE,34,3.1,4.0,95,0.00,,---,0.00,VWS V13.01,2013-05-05 06:55:00,
2013-05-05 01:56:00,34.0,32.7,30.23,NE,47,4.5,5.1,95,0.00,,---,0.00,VWS V13.01,2013-05-05 06:56:00,
2013-05-05 01:57:00,34.0,32.7,30.23,NE,47,4.5,4.5,95,0.00,,---,0.00,VWS V13.01,2013-05-05 06:57:00,
2013-05-05 01:58:00,34.0,32.7,30.23,NNE,30,4.5,4.7,95,0.00,,---,0.00,VWS V13.01,2013-05-05 06:58:00,
2013-05-05 01:59:00,34.0,32.7,30.23,NE,39,0.0,4.5,95,0.00,,---,0.00,VWS V13.01,2013-05-05 06:59:00,
2013-05-05 02:00:00,34.0,32.7,30.23,ENE,62,3.1,4.0,95,0.00,,---,0.00,VWS V13.01,2013-05-05 07:00:00,
2013-05-05 02:01:00,34.0,32.7,30.23,NNE,30,4.0,5.1,95,0.00,,---,0.00,VWS V13.01,2013-05-05 07:01:00,
2013-05-05 02:02:00,34.0,32.7,30.23,East,100,3.6,4.0,95,0.00,,---,0.00,VWS V13.01,2013-05-05 07:02:00,
2013-05-05 02:03:00,34.0,32.7,30.23,NE,44,4.0,5.1,95,0.00,,---,0.00,VWS V13.01,2013-05-05 07:03:00,
2013-05-05 02:04:00,34.0,32.7,30.23,ENE,76,4.0,4.0,95,0.00,,---,0.00,VWS V13.01,2013-05-05 07:04:00,
2013-05-05 02:05:00,34.0,32.7,30.23,ENE,69,3.1,4.0,95,0.00,,---,0.00,VWS V13.01,2013-05-05 07:05:00,
2013-05-05 02:06:00,34.0,32.7,30.23,ENE,67,3.1,3.6,95,0.00,,---,0.00,VWS V13.01,2013-05-05 07:06:00,
2013-05-05 02:07:00,34.0,32.7,30.23,ENE,67,3.1,3.1,95,0.00,,---,0.00,VWS V13.01,2013-05-05 07:07:00,
2013-05-05 02:08:00,34.0,32.7,30.23,ESE,105,3.1,5.6,95,0.00,,---,0.00,VWS V13.01,2013-05-05 07:08:00,
2013-05-05 02:09:00,34.0,32.7,30.23,NE,45,4.5,4.7,95,0.00,,---,0.00,VWS V13.01,2013-05-05 07:09:00,
2013-05-05 02:10:00,34.0,32.7,30.23,NNE,28,6.0,6.0,95,0.00,,---,0.00,VWS V13.01,2013-05-05 07:10:00,
2013-05-05 02:11:00,34.0,32.7,30.23,ENE,62,3.6,6.0,95,0.00,,---,0.00,VWS V13.01,2013-05-05 07:11:00,
2013-05-05 02:12:00,34.0,32.7,30.23,NE,40,4.0,4.0,95,0.00,,---,0.00,VWS V13.01,2013-05-05 07:12:00,
2013-05-05 02:13:00,34.0,32.7,30.23,NE,35,5.1,5.6,95,0.00,,---,0.00,VWS V13.01,2013-05-05 07:13:00,
2013-05-05 02:14:00,34.0,32.7,30.23,NNE,24,3.6,5.1,95,0.00,,---,0.00,VWS V13.01,2013-05-05 07:14:00,
2013-05-05 02:15:00,34.0,32.7,30.23,NNE,31,4.0,4.7,95,0.00,,---,0.00,VWS V13.01,2013-05-05 07:15:00,
2013-05-05 02:16:00,34.0,32.7,30.23,NNE,29,3.1,5.1,95,0.00,,---,0.00,VWS V13.01,2013-05-05 07:16:00,
2013-05-05 02:17:00,34.0,32.7,30.23,NNE,29,3.1,5.1,95,0.00,,---,0.00,VWS V13.01,2013-05-05 07:17:00,
2013-05-05 02:18:00,34.0,32.7,30.23,NE,53,4.5,6.0,95,0.00,,---,0.00,VWS V13.01,2013-05-05 07:18:00,
2013-05-05 02:19:00,34.0,32.7,30.23,ENE,68,3.6,4.7,95,0.00,,---,0.00,VWS V13.01,2013-05-05 07:19:00,
2013-05-05 02:20:00,34.0,32.7,30.23,NNE,26,4.5,4.5,95,0.00,,---,0.00,VWS V13.01,2013-05-05 07:20:00,
2013-05-05 02:21:00,34.0,32.7,30.23,NE,35,3.6,4.7,95,0.00,,---,0.00,VWS V13.01,2013-05-05 07:21:00,
2013-05-05 02:22:00,34.0,32.7,30.23,NE,43,4.5,4.5,95,0.00,,---,0.00,VWS V13.01,2013-05-05 07:22:00,
2013-05-05 02:23:00,34.0,32.7,30.23,ENE,59,5.6,5.6,95,0.00,,---,0.00,VWS V13.01,2013-05-05 07:23:00,
2013-05-05 02:24:00,34.0,32.7,30.23,NE,45,4.7,5.6,95,0.00,,---,0.00,VWS V13.01,2013-05-05 07:24:00,
2013-05-05 02:25:00,34.0,32.7,30.23,NE,45,4.0,4.7,95,0.00,,---,0.00,VWS V13.01,2013-05-05 07:25:00,
2013-05-05 02:26:00,34.0,32.7,30.23,NNE,19,3.6,4.0,95,0.00,,---,0.00,VWS V13.01,2013-05-05 07:26:00,
2013-05-05 02:27:00,34.0,32.7,30.23,NNE,19,3.6,4.0,95,0.00,,---,0.00,VWS V13.01,2013-05-05 07:27:00,
2013-05-05 02:28:00,34.0,32.7,30.23,ENE,73,0.0,3.6,95,0.00,,---,0.00,VWS V13.01,2013-05-05 07:28:00,
2013-05-05 02:29:00,34.0,32.7,30.23,ENE,78,0.0,0.0,95,0.00,,---,0.00,VWS V13.01,2013-05-05 07:29:00,
2013-05-05 02:30:00,34.0,32.7,30.23,NE,37,0.0,0.0,95,0.00,,---,0.00,VWS V13.01,2013-05-05 07:30:00,
2013-05-05 02:31:00,34.0,32.7,30.23,North,8,4.0,4.5,95,0.00,,---,0.00,VWS V13.01,2013-05-05 07:31:00,
2013-05-05 02:32:00,34.0,32.7,30.23,NE,56,4.0,4.0,95,0.00,,---,0.00,VWS V13.01,2013-05-05 07:32:00,
2013-05-05 02:33:00,34.0,32.7,30.23,NNE,26,5.6,5.6,95,0.00,,---,0.00,VWS V13.01,2013-05-05 07:33:00,
2013-05-05 02:34:00,34.0,32.7,30.23,NNE,23,3.6,5.6,95,0.00,,---,0.00,VWS V13.01,2013-05-05 07:34:00,
2013-05-05 02:35:00,34.0,32.7,30.23,NE,46,3.6,4.5,95,0.00,,---,0.00,VWS V13.01,2013-05-05 07:35:00,
2013-05-05 02:36:00,34.0,32.7,30.23,NNE,33,5.6,6.0,95,0.00,,---,0.00,VWS V13.01,2013-05-05 07:36:00,
2013-05-05 02:37:00,34.0,32.7,30.23,NE,47,5.1,5.6,95,0.00,,---,0.00,VWS V13.01,2013-05-05 07:37:00,
2013-05-05 02:38:00,34.0,32.7,30.23,NE,45,4.0,4.0,95,0.00,,---,0.00,VWS V13.01,2013-05-05 07:38:00,
2013-05-05 02:39:00,34.0,32.7,30.23,NNE,32,3.6,4.7,95,0.00,,---,0.00,VWS V13.01,2013-05-05 07:39:00,
2013-05-05 02:40:00,34.0,32.7,30.23,NE,36,4.7,4.7,95,0.00,,---,0.00,VWS V13.01,2013-05-05 07:40:00,
2013-05-05 02:41:00,34.0,32.7,30.20,ENE,59,4.7,6.9,95,0.00,,---,0.00,VWS V13.01,2013-05-05 07:41:00,
2013-05-05 02:42:00,33.8,32.5,30.20,ENE,70,4.5,4.7,95,0.00,,---,0.00,VWS V13.01,2013-05-05 07:42:00,
2013-05-05 02:43:00,33.8,32.5,30.20,NE,43,4.0,4.7,95,0.00,,---,0.00,VWS V13.01,2013-05-05 07:43:00,
2013-05-05 02:44:00,33.8,32.5,30.20,NE,47,3.6,5.6,95,0.00,,---,0.00,VWS V13.01,2013-05-05 07:44:00,
2013-05-05 02:45:00,34.0,32.7,30.20,NNE,20,4.5,5.6,95,0.00,,---,0.00,VWS V13.01,2013-05-05 07:45:00,
2013-05-05 02:46:00,34.0,32.7,30.20,NE,46,3.1,4.7,95,0.00,,---,0.00,VWS V13.01,2013-05-05 07:46:00,
2013-05-05 02:47:00,34.0,32.7,30.20,NE,46,3.1,3.1,95,0.00,,---,0.00,VWS V13.01,2013-05-05 07:47:00,
2013-05-05 02:48:00,34.0,32.7,30.20,ENE,64,3.6,4.5,95,0.00,,---,0.00,VWS V13.01,2013-05-05 07:48:00,
2013-05-05 02:49:00,34.0,32.7,30.20,NE,34,2.7,4.5,95,0.00,,---,0.00,VWS V13.01,2013-05-05 07:49:00,
2013-05-05 02:50:00,34.0,32.7,30.20,NE,36,4.0,4.0,95,0.00,,---,0.00,VWS V13.01,2013-05-05 07:50:00,
2013-05-05 02:51:00,34.0,32.7,30.20,NE,36,4.0,4.0,95,0.00,,---,0.00,VWS V13.01,2013-05-05 07:51:00,
2013-05-05 02:52:00,34.0,32.7,30.20,NE,36,4.0,4.0,95,0.00,,---,0.00,VWS V13.01,2013-05-05 07:52:00,
2013-05-05 02:53:00,34.0,32.7,30.20,NNE,30,6.0,6.0,95,0.00,,---,0.00,VWS V13.01,2013-05-05 07:53:00,
2013-05-05 02:54:00,34.0,32.7,30.20,NE,44,0.0,6.0,95,0.00,,---,0.00,VWS V13.01,2013-05-05 07:54:00,
2013-05-05 02:55:00,34.0,32.7,30.20,NE,35,3.6,5.6,95,0.00,,---,0.00,VWS V13.01,2013-05-05 07:55:00,
2013-05-05 02:56:00,34.0,33.0,30.20,NE,35,0.0,3.6,96,0.00,,---,0.00,VWS V13.01,2013-05-05 07:56:00,
2013-05-05 02:57:00,34.0,33.0,30.20,NE,35,4.0,4.0,96,0.00,,---,0.00,VWS V13.01,2013-05-05 07:57:00,
2013-05-05 02:58:00,34.0,33.0,30.20,NNE,15,4.0,4.7,96,0.00,,---,0.00,VWS V13.01,2013-05-05 07:58:00,
2013-05-05 02:59:00,34.0,33.0,30.20,NE,51,4.0,4.7,96,0.00,,---,0.00,VWS V13.01,2013-05-05 07:59:00,
2013-05-05 03:00:00,34.0,33.0,30.20,ENE,61,3.1,4.0,96,0.00,,---,0.00,VWS V13.01,2013-05-05 08:00:00,
2013-05-05 03:01:00,34.0,33.0,30.20,NNE,33,4.0,4.0,96,0.00,,---,0.00,VWS V13.01,2013-05-05 08:01:00,
2013-05-05 03:02:00,34.0,33.0,30.20,NNE,33,4.0,4.0,96,0.00,,---,0.00,VWS V13.01,2013-05-05 08:02:00,
2013-05-05 03:03:00,33.8,32.8,30.20,NNE,32,0.0,3.1,96,0.00,,---,0.00,VWS V13.01,2013-05-05 08:03:00,
2013-05-05 03:04:00,33.8,32.8,30.20,NNE,32,0.0,0.0,96,0.00,,---,0.00,VWS V13.01,2013-05-05 08:04:00,
2013-05-05 03:05:00,33.8,32.8,30.20,NNE,31,4.5,4.5,96,0.00,,---,0.00,VWS V13.01,2013-05-05 08:05:00,
2013-05-05 03:06:00,33.8,32.8,30.20,NNE,31,6.0,6.0,96,0.00,,---,0.00,VWS V13.01,2013-05-05 08:06:00,
2013-05-05 03:07:00,33.8,32.8,30.20,NE,44,6.5,6.5,96,0.00,,---,0.00,VWS V13.01,2013-05-05 08:07:00,
2013-05-05 03:08:00,33.8,32.8,30.20,NE,45,4.0,4.5,96,0.00,,---,0.00,VWS V13.01,2013-05-05 08:08:00,
2013-05-05 03:09:00,33.8,32.8,30.20,NNE,19,5.1,5.1,96,0.00,,---,0.00,VWS V13.01,2013-05-05 08:09:00,
2013-05-05 03:10:00,33.8,32.8,30.20,ENE,63,4.5,5.1,96,0.00,,---,0.00,VWS V13.01,2013-05-05 08:10:00,
2013-05-05 03:11:00,33.8,32.8,30.20,NE,54,4.5,4.5,96,0.00,,---,0.00,VWS V13.01,2013-05-05 08:11:00,
2013-05-05 03:12:00,33.8,32.8,30.20,NE,54,4.0,4.5,96,0.00,,---,0.00,VWS V13.01,2013-05-05 08:12:00,
2013-05-05 03:13:00,33.8,32.8,30.20,ENE,63,3.1,4.7,96,0.00,,---,0.00,VWS V13.01,2013-05-05 08:13:00,
2013-05-05 03:14:00,33.8,32.8,30.20,NNE,30,3.6,4.5,96,0.00,,---,0.00,VWS V13.01,2013-05-05 08:14:00,
2013-05-05 03:15:00,33.8,32.8,30.20,ENE,58,4.5,4.5,96,0.00,,---,0.00,VWS V13.01,2013-05-05 08:15:00,
2013-05-05 03:16:00,33.8,32.8,30.20,NE,42,5.6,5.6,96,0.00,,---,0.00,VWS V13.01,2013-05-05 08:16:00,
2013-05-05 03:17:00,33.8,32.8,30.20,NE,42,5.6,5.6,96,0.00,,---,0.00,VWS V13.01,2013-05-05 08:17:00,
2013-05-05 03:18:00,33.8,32.8,30.20,ENE,61,3.1,5.1,96,0.00,,---,0.00,VWS V13.01,2013-05-05 08:18:00,
2013-05-05 03:19:00,33.8,32.8,30.20,NE,51,3.6,4.5,96,0.00,,---,0.00,VWS V13.01,2013-05-05 08:19:00,
2013-05-05 03:20:00,33.8,32.8,30.20,NNE,29,3.6,4.0,96,0.00,,---,0.00,VWS V13.01,2013-05-05 08:20:00,
2013-05-05 03:21:00,33.8,32.8,30.20,NNE,29,0.0,3.6,96,0.00,,---,0.00,VWS V13.01,2013-05-05 08:21:00,
2013-05-05 03:22:00,33.8,32.8,30.20,East,93,0.0,0.0,96,0.00,,---,0.00,VWS V13.01,2013-05-05 08:22:00,
2013-05-05 03:23:00,33.8,32.8,30.20,NNE,31,2.7,3.6,96,0.00,,---,0.00,VWS V13.01,2013-05-05 08:23:00,
2013-05-05 03:24:00,33.8,32.8,30.20,ESE,111,3.6,3.6,96,0.00,,---,0.00,VWS V13.01,2013-05-05 08:24:00,
2013-05-05 03:25:00,33.8,32.8,30.20,NE,52,3.6,4.0,96,0.00,,---,0.00,VWS V13.01,2013-05-05 08:25:00,
2013-05-05 03:26:00,33.8,32.8,30.20,NE,38,4.5,4.7,96,0.00,,---,0.00,VWS V13.01,2013-05-05 08:26:00,
2013-05-05 03:27:00,33.8,32.8,30.20,NE,38,4.5,4.5,96,0.00,,---,0.00,VWS V13.01,2013-05-05 08:27:00,
2013-05-05 03:28:00,33.8,32.8,30.20,ENE,65,4.0,4.0,96,0.00,,---,0.00,VWS V13.01,2013-05-05 08:28:00,
2013-05-05 03:29:00,33.8,32.8,30.20,East,81,3.6,5.1,96,0.00,,---,0.00,VWS V13.01,2013-05-05 08:29:00,
2013-05-05 03:30:00,33.8,32.8,30.20,NE,48,3.1,4.5,96,0.00,,---,0.00,VWS V13.01,2013-05-05 08:30:00,
2013-05-05 03:31:00,33.8,32.8,30.20,NE,48,3.6,3.6,96,0.00,,---,0.00,VWS V13.01,2013-05-05 08:31:00,
2013-05-05 03:32:00,33.8,32.8,30.20,NE,48,3.6,3.6,96,0.00,,---,0.00,VWS V13.01,2013-05-05 08:32:00,
2013-05-05 03:33:00,33.8,32.8,30.20,NE,48,4.0,6.0,96,0.00,,---,0.00,VWS V13.01,2013-05-05 08:33:00,
2013-05-05 03:34:00,33.8,32.8,30.20,NE,48,3.6,4.0,96,0.00,,---,0.00,VWS V13.01,2013-05-05 08:34:00,
2013-05-05 03:35:00,33.8,32.8,30.20,ENE,68,3.1,3.6,96,0.00,,---,0.00,VWS V13.01,2013-05-05 08:35:00,
2013-05-05 03:36:00,33.8,32.8,30.20,ENE,72,3.1,4.0,96,0.00,,---,0.00,VWS V13.01,2013-05-05 08:36:00,
2013-05-05 03:37:00,33.8,32.8,30.20,ENE,72,3.1,3.1,96,0.00,,---,0.00,VWS V13.01,2013-05-05 08:37:00,
2013-05-05 03:38:00,33.8,32.8,30.20,NE,50,3.6,5.6,96,0.00,,---,0.00,VWS V13.01,2013-05-05 08:38:00,
2013-05-05 03:39:00,33.8,32.8,30.20,ENE,72,3.6,4.5,96,0.00,,---,0.00,VWS V13.01,2013-05-05 08:39:00,
2013-05-05 03:40:00,33.8,32.8,30.20,ENE,69,4.5,4.7,96,0.00,,---,0.00,VWS V13.01,2013-05-05 08:40:00,
2013-05-05 03:41:00,33.8,32.8,30.20,ENE,61,3.6,4.5,96,0.00,,---,0.00,VWS V13.01,2013-05-05 08:41:00,
2013-05-05 03:42:00,33.8,32.8,30.20,ENE,61,3.6,4.5,96,0.00,,---,0.00,VWS V13.01,2013-05-05 08:42:00,
2013-05-05 03:43:00,33.8,32.8,30.20,ESE,119,4.5,5.6,96,0.00,,---,0.00,VWS V13.01,2013-05-05 08:43:00,
2013-05-05 03:44:00,33.8,32.8,30.20,NE,43,3.6,4.5,96,0.00,,---,0.00,VWS V13.01,2013-05-05 08:44:00,
2013-05-05 03:45:00,33.8,32.8,30.20,East,91,3.1,4.5,96,0.00,,---,0.00,VWS V13.01,2013-05-05 08:45:00,
2013-05-05 03:46:00,33.8,32.8,30.20,NNE,20,4.0,4.0,96,0.00,,---,0.00,VWS V13.01,2013-05-05 08:46:00,
2013-05-05 03:47:00,33.8,32.8,30.20,NNE,20,3.6,4.0,96,0.00,,---,0.00,VWS V13.01,2013-05-05 08:47:00,
2013-05-05 03:48:00,33.8,32.8,30.20,NNE,20,0.0,0.0,96,0.00,,---,0.00,VWS V13.01,2013-05-05 08:48:00,
2013-05-05 03:49:00,33.8,32.8,30.20,ENE,63,2.7,4.0,96,0.00,,---,0.00,VWS V13.01,2013-05-05 08:49:00,
2013-05-05 03:50:00,33.8,32.8,30.20,ENE,77,4.5,5.1,96,0.00,,---,0.00,VWS V13.01,2013-05-05 08:50:00,
2013-05-05 03:51:00,33.8,32.8,30.20,ENE,69,3.1,4.5,96,0.00,,---,0.00,VWS V13.01,2013-05-05 08:51:00,
2013-05-05 03:52:00,33.8,32.8,30.20,ENE,69,3.1,4.5,96,0.00,,---,0.00,VWS V13.01,2013-05-05 08:52:00,
2013-05-05 03:53:00,33.8,32.8,30.20,East,92,3.6,4.5,96,0.00,,---,0.00,VWS V13.01,2013-05-05 08:53:00,
2013-05-05 03:54:00,33.8,32.8,30.20,NNE,31,4.5,4.7,96,0.00,,---,0.00,VWS V13.01,2013-05-05 08:54:00,
2013-05-05 03:55:00,33.8,32.8,30.20,NE,48,4.0,4.5,96,0.00,,---,0.00,VWS V13.01,2013-05-05 08:55:00,
2013-05-05 03:56:00,33.8,32.8,30.20,ENE,66,4.0,4.0,96,0.00,,---,0.00,VWS V13.01,2013-05-05 08:56:00,
2013-05-05 03:57:00,33.8,32.8,30.20,ENE,66,4.0,4.0,96,0.00,,---,0.00,VWS V13.01,2013-05-05 08:57:00,
2013-05-05 03:58:00,33.8,32.8,30.20,NE,45,5.1,6.5,96,0.00,,---,0.00,VWS V13.01,2013-05-05 08:58:00,
2013-05-05 03:59:00,33.8,32.8,30.20,NNE,26,6.0,6.0,96,0.00,,---,0.00,VWS V13.01,2013-05-05 08:59:00,
2013-05-05 04:00:00,33.8,32.8,30.20,ENE,64,3.6,6.0,96,0.00,,---,0.00,VWS V13.01,2013-05-05 09:00:00,
2013-05-05 04:01:00,33.8,32.8,30.20,NE,46,0.0,4.0,96,0.00,,---,0.00,VWS V13.01,2013-05-05 09:01:00,
2013-05-05 04:02:00,33.8,32.8,30.20,NE,46,3.1,4.0,96,0.00,,---,0.00,VWS V13.01,2013-05-05 09:02:00,
2013-05-05 04:03:00,33.8,32.8,30.20,NE,43,4.0,4.5,96,0.00,,---,0.00,VWS V13.01,2013-05-05 09:03:00,
2013-05-05 04:04:00,33.8,32.8,30.20,NE,43,2.7,4.0,96,0.00,,---,0.00,VWS V13.01,2013-05-05 09:04:00,
2013-05-05 04:05:00,33.8,32.8,30.20,NE,43,0.0,2.7,96,0.00,,---,0.00,VWS V13.01,2013-05-05 09:05:00,
2013-05-05 04:06:00,33.8,32.8,30.20,NE,46,4.0,4.0,96,0.00,,---,0.00,VWS V13.01,2013-05-05 09:06:00,
2013-05-05 04:07:00,33.8,32.8,30.20,NE,45,3.6,4.0,96,0.00,,---,0.00,VWS V13.01,2013-05-05 09:07:00,
2013-05-05 04:08:00,33.8,32.8,30.20,NNE,28,4.0,4.5,96,0.00,,---,0.00,VWS V13.01,2013-05-05 09:08:00,
2013-05-05 04:09:00,33.8,32.8,30.20,NNE,28,3.6,4.0,96,0.00,,---,0.00,VWS V13.01,2013-05-05 09:09:00,
2013-05-05 04:10:00,33.8,32.8,30.20,NNE,28,4.0,4.0,96,0.00,,---,0.00,VWS V13.01,2013-05-05 09:10:00,
2013-05-05 04:11:00,33.8,32.8,30.20,NE,50,3.6,4.0,96,0.00,,---,0.00,VWS V13.01,2013-05-05 09:11:00,
2013-05-05 04:12:00,33.8,32.8,30.20,NE,50,3.6,4.0,96,0.00,,---,0.00,VWS V13.01,2013-05-05 09:12:00,
2013-05-05 04:13:00,33.8,32.8,30.20,NE,56,3.1,3.6,96,0.00,,---,0.00,VWS V13.01,2013-05-05 09:13:00,
2013-05-05 04:14:00,33.8,32.8,30.20,NE,36,4.5,4.5,96,0.00,,---,0.00,VWS V13.01,2013-05-05 09:14:00,
2013-05-05 04:15:00,33.8,32.8,30.20,ENE,62,3.1,4.5,96,0.00,,---,0.00,VWS V13.01,2013-05-05 09:15:00,
2013-05-05 04:16:00,33.8,32.8,30.20,ENE,60,4.7,4.7,96,0.00,,---,0.00,VWS V13.01,2013-05-05 09:16:00,
2013-05-05 04:17:00,33.8,32.8,30.20,ENE,60,4.7,4.7,96,0.00,,---,0.00,VWS V13.01,2013-05-05 09:17:00,
2013-05-05 04:18:00,33.8,32.8,30.20,ENE,63,3.1,4.5,96,0.00,,---,0.00,VWS V13.01,2013-05-05 09:18:00,
2013-05-05 04:19:00,33.8,32.8,30.20,ENE,63,0.0,3.1,96,0.00,,---,0.00,VWS V13.01,2013-05-05 09:19:00,
2013-05-05 04:20:00,33.8,32.8,30.20,ENE,63,0.0,0.0,96,0.00,,---,0.00,VWS V13.01,2013-05-05 09:20:00,
2013-05-05 04:21:00,33.8,32.8,30.20,East,101,0.0,0.0,96,0.00,,---,0.00,VWS V13.01,2013-05-05 09:21:00,
2013-05-05 04:22:00,33.8,32.8,30.20,ENE,63,0.0,0.0,96,0.00,,---,0.00,VWS V13.01,2013-05-05 09:22:00,
2013-05-05 04:23:00,33.8,32.8,30.20,NE,34,2.7,4.0,96,0.00,,---,0.00,VWS V13.01,2013-05-05 09:23:00,
2013-05-05 04:24:00,33.8,32.8,30.20,NE,38,4.5,4.5,96,0.00,,---,0.00,VWS V13.01,2013-05-05 09:24:00,
2013-05-05 04:25:00,33.8,32.8,30.20,NE,52,4.5,6.5,96,0.00,,---,0.00,VWS V13.01,2013-05-05 09:25:00,
2013-05-05 04:26:00,33.8,32.8,30.20,NE,51,4.0,4.5,96,0.00,,---,0.00,VWS V13.01,2013-05-05 09:26:00,
2013-05-05 04:27:00,33.8,32.8,30.20,NE,51,4.5,4.5,96,0.00,,---,0.00,VWS V13.01,2013-05-05 09:27:00,
2013-05-05 04:28:00,33.8,32.8,30.20,NE,51,3.6,4.0,96,0.00,,---,0.00,VWS V13.01,2013-05-05 09:28:00,
2013-05-05 04:29:00,33.8,32.8,30.20,ENE,58,3.6,4.7,96,0.00,,---,0.00,VWS V13.01,2013-05-05 09:29:00,
2013-05-05 04:30:00,33.8,32.8,30.20,NE,54,0.0,3.6,96,0.00,,---,0.00,VWS V13.01,2013-05-05 09:30:00,
2013-05-05 04:31:00,33.8,32.8,30.20,NE,44,4.5,5.6,96,0.00,,---,0.00,VWS V13.01,2013-05-05 09:31:00,
2013-05-05 04:32:00,33.8,32.8,30.20,NE,44,5.6,5.6,96,0.00,,---,0.00,VWS V13.01,2013-05-05 09:32:00,
2013-05-05 04:33:00,33.8,32.8,30.20,NE,35,0.0,3.1,96,0.00,,---,0.00,VWS V13.01,2013-05-05 09:33:00,
2013-05-05 04:34:00,33.8,32.8,30.20,NE,43,3.6,4.0,96,0.00,,---,0.00,VWS V13.01,2013-05-05 09:34:00,
2013-05-05 04:35:00,33.8,32.8,30.20,East,81,4.5,4.5,96,0.00,,---,0.00,VWS V13.01,2013-05-05 09:35:00,
2013-05-05 04:36:00,33.8,32.8,30.20,East,101,4.5,4.5,96,0.00,,---,0.00,VWS V13.01,2013-05-05 09:36:00,
2013-05-05 04:37:00,33.8,32.8,30.20,ENE,71,3.6,4.5,96,0.00,,---,0.00,VWS V13.01,2013-05-05 09:37:00,
2013-05-05 04:38:00,33.8,32.8,30.20,NE,51,2.7,4.5,96,0.00,,---,0.00,VWS V13.01,2013-05-05 09:38:00,
2013-05-05 04:39:00,33.8,32.8,30.20,ENE,61,4.5,4.7,96,0.00,,---,0.00,VWS V13.01,2013-05-05 09:39:00,
2013-05-05 04:40:00,33.8,32.8,30.20,East,87,3.6,5.1,96,0.00,,---,0.00,VWS V13.01,2013-05-05 09:40:00,
2013-05-05 04:41:00,33.8,32.8,30.20,East,79,3.1,3.6,96,0.00,,---,0.00,VWS V13.01,2013-05-05 09:41:00,
2013-05-05 04:42:00,33.8,32.8,30.20,East,79,3.6,3.6,96,0.00,,---,0.00,VWS V13.01,2013-05-05 09:42:00,
2013-05-05 04:43:00,33.8,32.8,30.20,ENE,60,3.6,4.7,96,0.00,,---,0.00,VWS V13.01,2013-05-05 09:43:00,
2013-05-05 04:44:00,33.8,32.8,30.20,NE,50,2.7,4.0,96,0.00,,---,0.00,VWS V13.01,2013-05-05 09:44:00,
2013-05-05 04:45:00,33.8,32.8,30.20,NE,50,0.0,3.6,96,0.00,,---,0.00,VWS V13.01,2013-05-05 09:45:00,
2013-05-05 04:46:00,33.8,32.8,30.20,ENE,59,3.6,4.0,96,0.00,,---,0.00,VWS V13.01,2013-05-05 09:46:00,
2013-05-05 04:47:00,33.8,32.8,30.20,NE,50,4.0,4.0,96,0.00,,---,0.00,VWS V13.01,2013-05-05 09:47:00,
2013-05-05 04:48:00,33.6,32.6,30.20,East,84,0.0,0.0,96,0.00,,---,0.00,VWS V13.01,2013-05-05 09:48:00,
2013-05-05 04:49:00,33.6,32.6,30.20,East,84,0.0,0.0,96,0.00,,---,0.00,VWS V13.01,2013-05-05 09:49:00,
2013-05-05 04:50:00,33.6,32.6,30.20,East,84,0.0,0.0,96,0.00,,---,0.00,VWS V13.01,2013-05-05 09:50:00,
2013-05-05 04:51:00,33.6,32.6,30.20,East,83,0.0,0.0,96,0.00,,---,0.00,VWS V13.01,2013-05-05 09:51:00,
2013-05-05 04:52:00,33.6,32.6,30.20,East,84,0.0,0.0,96,0.00,,---,0.00,VWS V13.01,2013-05-05 09:52:00,
2013-05-05 04:53:00,33.6,32.6,30.20,NE,36,4.5,4.5,96,0.00,,---,0.00,VWS V13.01,2013-05-05 09:53:00,
2013-05-05 04:54:00,33.6,32.6,30.20,NE,36,3.1,4.5,96,0.00,,---,0.00,VWS V13.01,2013-05-05 09:54:00,
2013-05-05 04:55:00,33.6,32.6,30.20,NE,36,3.6,3.6,96,0.00,,---,0.00,VWS V13.01,2013-05-05 09:55:00,
2013-05-05 04:56:00,33.6,32.6,30.20,North,7,4.7,4.7,96,0.00,,---,0.00,VWS V13.01,2013-05-05 09:56:00,
2013-05-05 04:57:00,33.6,32.6,30.20,NE,49,3.1,3.6,96,0.00,,---,0.00,VWS V13.01,2013-05-05 09:57:00,
2013-05-05 04:58:00,33.6,32.6,30.20,NE,36,4.0,4.5,96,0.00,,---,0.00,VWS V13.01,2013-05-05 09:58:00,
2013-05-05 04:59:00,33.6,32.6,30.20,NE,46,4.5,4.5,96,0.00,,---,0.00,VWS V13.01,2013-05-05 09:59:00,
2013-05-05 05:00:00,33.6,32.6,30.20,NE,36,4.0,6.5,96,0.00,,---,0.00,VWS V13.01,2013-05-05 10:00:00,
2013-05-05 05:01:00,33.6,32.6,30.20,NE,36,4.5,4.5,96,0.00,,---,0.00,VWS V13.01,2013-05-05 10:01:00,
2013-05-05 05:02:00,33.6,32.6,30.20,NE,36,4.0,4.0,96,0.00,,---,0.00,VWS V13.01,2013-05-05 10:02:00,
2013-05-05 05:03:00,33.6,32.6,30.20,NE,39,2.7,4.5,96,0.00,,---,0.00,VWS V13.01,2013-05-05 10:03:00,
2013-05-05 05:04:00,33.6,32.6,30.20,NE,39,0.0,2.7,96,0.00,,---,0.00,VWS V13.01,2013-05-05 10:04:00,
2013-05-05 05:05:00,33.6,32.6,30.20,NE,39,4.0,4.0,96,0.00,,---,0.00,VWS V13.01,2013-05-05 10:05:00,
2013-05-05 05:06:00,33.6,32.6,30.20,NE,39,0.0,4.0,96,0.00,,---,0.00,VWS V13.01,2013-05-05 10:06:00,
2013-05-05 05:07:00,33.6,32.6,30.20,NE,39,0.0,4.0,96,0.00,,---,0.00,VWS V13.01,2013-05-05 10:07:00,
2013-05-05 05:08:00,33.6,32.6,30.20,ENE,76,4.0,4.7,96,0.00,,---,0.00,VWS V13.01,2013-05-05 10:08:00,
2013-05-05 05:09:00,33.6,32.9,30.20,ENE,60,3.6,4.0,97,0.00,,---,0.00,VWS V13.01,2013-05-05 10:09:00,
2013-05-05 05:10:00,33.6,32.9,30.20,ENE,63,4.0,4.0,97,0.00,,---,0.00,VWS V13.01,2013-05-05 10:10:00,
2013-05-05 05:11:00,33.6,32.9,30.20,ENE,63,4.0,4.0,97,0.00,,---,0.00,VWS V13.01,2013-05-05 10:11:00,
2013-05-05 05:12:00,33.6,32.9,30.20,ENE,63,3.6,4.0,97,0.00,,---,0.00,VWS V13.01,2013-05-05 10:12:00,
2013-05-05 05:13:00,33.6,32.9,30.20,NE,48,4.0,4.0,97,0.00,,---,0.00,VWS V13.01,2013-05-05 10:13:00,
2013-05-05 05:14:00,33.6,32.9,30.20,NE,53,4.0,4.0,97,0.00,,---,0.00,VWS V13.01,2013-05-05 10:14:00,
2013-05-05 05:15:00,33.6,32.9,30.20,NNE,21,3.6,4.0,97,0.00,,---,0.00,VWS V13.01,2013-05-05 10:15:00,
2013-05-05 05:16:00,33.6,32.9,30.20,North,4,3.6,4.0,97,0.00,,---,0.00,VWS V13.01,2013-05-05 10:16:00,
2013-05-05 05:17:00,33.6,32.9,30.20,North,6,4.0,4.0,97,0.00,,---,0.00,VWS V13.01,2013-05-05 10:17:00,
2013-05-05 05:18:00,33.6,32.9,30.20,ENE,60,3.6,4.0,97,0.00,,---,0.00,VWS V13.01,2013-05-05 10:18:00,
2013-05-05 05:19:00,33.6,32.9,30.20,NE,50,2.7,3.6,97,0.00,,---,0.00,VWS V13.01,2013-05-05 10:19:00,
2013-05-05 05:20:00,33.6,32.9,30.20,NE,50,2.7,3.1,97,0.00,,---,0.00,VWS V13.01,2013-05-05 10:20:00,
2013-05-05 05:21:00,33.6,32.9,30.20,NE,50,0.0,2.7,97,0.00,,---,0.00,VWS V13.01,2013-05-05 10:21:00,
2013-05-05 05:22:00,33.6,32.9,30.20,NE,50,0.0,2.7,97,0.00,,---,0.00,VWS V13.01,2013-05-05 10:22:00,
2013-05-05 05:23:00,33.6,32.9,30.20,NE,50,0.0,0.0,97,0.00,,---,0.00,VWS V13.01,2013-05-05 10:23:00,
2013-05-05 05:24:00,33.6,32.9,30.20,NE,35,3.6,3.6,97,0.00,,---,0.00,VWS V13.01,2013-05-05 10:24:00,
2013-05-05 05:25:00,33.6,32.9,30.20,NE,38,4.7,4.7,97,0.00,,---,0.00,VWS V13.01,2013-05-05 10:25:00,
2013-05-05 05:26:00,33.6,32.9,30.20,NE,54,3.6,4.7,97,0.00,,---,0.00,VWS V13.01,2013-05-05 10:26:00,
2013-05-05 05:27:00,33.6,32.9,30.20,NE,39,3.6,4.7,97,0.00,,---,0.00,VWS V13.01,2013-05-05 10:27:00,
2013-05-05 05:28:00,33.6,32.9,30.20,NNE,25,3.6,3.6,97,0.00,,---,0.00,VWS V13.01,2013-05-05 10:28:00,
2013-05-05 05:29:00,33.6,32.9,30.20,North,11,3.6,4.5,97,0.00,,---,0.00,VWS V13.01,2013-05-05 10:29:00,
2013-05-05 05:30:00,33.6,32.9,30.20,NE,41,4.5,4.7,97,0.00,,---,0.00,VWS V13.01,2013-05-05 10:30:00,
2013-05-05 05:31:00,33.6,32.9,30.20,NE,45,3.6,4.5,97,0.00,,---,0.00,VWS V13.01,2013-05-05 10:31:00,
2013-05-05 05:32:00,33.6,32.9,30.20,ENE,62,2.7,4.5,97,0.00,,---,0.00,VWS V13.01,2013-05-05 10:32:00,
2013-05-05 05:33:00,33.6,32.9,30.20,NE,36,3.1,5.1,97,0.00,,---,0.00,VWS V13.01,2013-05-05 10:33:00,
2013-05-05 05:34:00,33.6,32.9,30.20,NE,43,4.0,4.0,97,0.00,,---,0.00,VWS V13.01,2013-05-05 10:34:00,
2013-05-05 05:35:00,33.6,32.9,30.20,NE,46,0.0,4.0,97,0.00,,---,0.00,VWS V13.01,2013-05-05 10:35:00,
2013-05-05 05:36:00,33.6,32.9,30.20,East,85,3.6,3.6,97,0.00,,---,0.00,VWS V13.01,2013-05-05 10:36:00,
2013-05-05 05:37:00,33.6,32.9,30.20,NNE,18,3.6,3.6,97,0.00,,---,0.00,VWS V13.01,2013-05-05 10:37:00,
2013-05-05 05:38:00,33.6,32.9,30.20,NE,36,4.7,4.7,97,0.00,,---,0.00,VWS V13.01,2013-05-05 10:38:00,
2013-05-05 05:39:00,33.6,32.9,30.20,NE,56,3.6,5.1,97,0.00,,---,0.00,VWS V13.01,2013-05-05 10:39:00,
2013-05-05 05:40:00,33.6,32.9,30.20,NE,47,3.1,4.7,97,0.00,,---,0.00,VWS V13.01,2013-05-05 10:40:00,
2013-05-05 05:41:00,33.6,32.9,30.20,North,357,4.5,4.5,97,0.00,,---,0.00,VWS V13.01,2013-05-05 10:41:00,
2013-05-05 05:42:00,33.6,32.9,30.20,NE,47,3.1,3.1,97,0.00,,---,0.00,VWS V13.01,2013-05-05 10:42:00,
2013-05-05 05:43:00,33.6,32.9,30.20,East,81,0.0,3.1,97,0.00,,---,0.00,VWS V13.01,2013-05-05 10:43:00,
2013-05-05 05:44:00,33.6,32.9,30.20,ENE,71,3.1,4.5,97,0.00,,---,0.00,VWS V13.01,2013-05-05 10:44:00,
2013-05-05 05:45:00,33.6,32.9,30.20,ENE,61,3.6,4.5,97,0.00,,---,0.00,VWS V13.01,2013-05-05 10:45:00,
2013-05-05 05:46:00,33.6,32.9,30.20,ENE,61,4.5,4.5,97,0.00,,---,0.00,VWS V13.01,2013-05-05 10:46:00,
2013-05-05 05:47:00,33.6,32.9,30.20,ENE,61,3.6,3.6,97,0.00,,---,0.00,VWS V13.01,2013-05-05 10:47:00,
2013-05-05 05:48:00,33.6,32.9,30.20,NE,39,0.0,3.6,97,0.00,,---,0.00,VWS V13.01,2013-05-05 10:48:00,
2013-05-05 05:49:00,33.6,32.9,30.20,East,80,3.6,3.6,97,0.00,,---,0.00,VWS V13.01,2013-05-05 10:49:00,
2013-05-05 05:50:00,33.6,32.9,30.20,NE,48,4.7,4.7,97,0.00,,---,0.00,VWS V13.01,2013-05-05 10:50:00,
2013-05-05 05:51:00,33.6,32.9,30.20,ENE,61,4.5,4.7,97,0.00,,---,0.00,VWS V13.01,2013-05-05 10:51:00,
2013-05-05 05:52:00,33.6,32.9,30.20,NNE,24,3.6,4.7,97,0.00,,---,0.00,VWS V13.01,2013-05-05 10:52:00,
2013-05-05 05:53:00,33.6,32.9,30.20,NE,40,3.1,4.0,97,0.00,,---,0.00,VWS V13.01,2013-05-05 10:53:00,
2013-05-05 05:54:00,33.6,32.9,30.20,West,280,3.6,4.0,97,0.00,,---,0.00,VWS V13.01,2013-05-05 10:54:00,
2013-05-05 05:55:00,33.6,32.9,30.20,NE,45,4.0,4.7,97,0.00,,---,0.00,VWS V13.01,2013-05-05 10:55:00,
2013-05-05 05:56:00,33.6,32.9,30.23,NNE,26,4.5,4.5,97,0.00,,---,0.00,VWS V13.01,2013-05-05 10:56:00,
2013-05-05 05:57:00,33.6,32.9,30.23,NE,52,4.0,4.5,97,0.00,,---,0.00,VWS V13.01,2013-05-05 10:57:00,
2013-05-05 05:58:00,33.6,32.9,30.23,NE,46,3.6,4.5,97,0.00,,---,0.00,VWS V13.01,2013-05-05 10:58:00,
2013-05-05 05:59:00,33.6,32.9,30.23,NE,46,3.6,4.5,97,0.00,,---,0.00,VWS V13.01,2013-05-05 10:59:00,
2013-05-05 06:00:00,33.6,32.9,30.23,NE,37,4.7,4.7,97,0.00,,---,0.00,VWS V13.01,2013-05-05 11:00:00,
2013-05-05 06:01:00,33.6,32.9,30.23,NE,35,4.0,4.7,97,0.00,,---,0.00,VWS V13.01,2013-05-05 11:01:00,
2013-05-05 06:02:00,33.6,32.9,30.23,NE,35,4.5,4.7,97,0.00,,---,0.00,VWS V13.01,2013-05-05 11:02:00,
2013-05-05 06:03:00,33.6,32.9,30.23,NE,45,4.5,5.1,97,0.00,,---,0.00,VWS V13.01,2013-05-05 11:03:00,
2013-05-05 06:04:00,33.6,32.9,30.23,NE,50,4.0,4.5,97,0.00,,---,0.00,VWS V13.01,2013-05-05 11:04:00,
2013-05-05 06:05:00,33.6,32.9,30.23,NE,56,2.7,4.0,97,0.00,,---,0.00,VWS V13.01,2013-05-05 11:05:00,
2013-05-05 06:06:00,33.6,32.9,30.23,ENE,72,3.6,4.5,97,0.00,,---,0.00,VWS V13.01,2013-05-05 11:06:00,
2013-05-05 06:07:00,33.6,32.9,30.23,ENE,65,4.5,4.5,97,0.00,,---,0.00,VWS V13.01,2013-05-05 11:07:00,
2013-05-05 06:08:00,33.6,32.9,30.23,NE,52,0.0,4.5,97,0.00,,---,0.00,VWS V13.01,2013-05-05 11:08:00,
2013-05-05 06:09:00,33.6,32.9,30.23,NE,51,4.0,4.0,97,0.00,,---,0.00,VWS V13.01,2013-05-05 11:09:00,
2013-05-05 06:10:00,33.6,32.9,30.23,NE,38,3.1,4.0,97,0.00,,---,0.00,VWS V13.01,2013-05-05 11:10:00,
2013-05-05 06:11:00,33.6,32.9,30.23,NE,45,3.6,3.6,97,0.00,,---,0.00,VWS V13.01,2013-05-05 11:11:00,
2013-05-05 06:12:00,33.6,32.9,30.23,NE,38,3.6,3.6,97,0.00,,---,0.00,VWS V13.01,2013-05-05 11:12:00,
2013-05-05 06:13:00,33.8,32.8,30.23,NE,34,4.0,4.0,96,0.00,,---,0.00,VWS V13.01,2013-05-05 11:13:00,
2013-05-05 06:14:00,33.8,32.8,30.23,NNE,32,3.6,5.1,96,0.00,,---,0.00,VWS V13.01,2013-05-05 11:14:00,
2013-05-05 06:15:00,33.8,32.8,30.23,NNE,32,2.7,3.6,96,0.00,,---,0.00,VWS V13.01,2013-05-05 11:15:00,
2013-05-05 06:16:00,33.8,32.8,30.23,NNE,32,2.7,3.1,96,0.00,,---,0.00,VWS V13.01,2013-05-05 11:16:00,
2013-05-05 06:17:00,33.8,32.8,30.23,NNE,32,2.7,2.7,96,0.00,,---,0.00,VWS V13.01,2013-05-05 11:17:00,
2013-05-05 06:18:00,33.8,32.8,30.23,NNE,32,0.0,0.0,96,0.00,,---,0.00,VWS V13.01,2013-05-05 11:18:00,
2013-05-05 06:19:00,33.8,32.8,30.23,NNE,32,0.0,0.0,96,0.00,,---,0.00,VWS V13.01,2013-05-05 11:19:00,
2013-05-05 06:20:00,33.8,32.8,30.23,NNE,32,0.0,0.0,96,0.00,,---,0.00,VWS V13.01,2013-05-05 11:20:00,
2013-05-05 06:21:00,33.8,32.8,30.23,NNE,32,0.0,0.0,96,0.00,,---,0.00,VWS V13.01,2013-05-05 11:21:00,
2013-05-05 06:22:00,33.8,32.8,30.23,NNE,32,0.0,0.0,96,0.00,,---,0.00,VWS V13.01,2013-05-05 11:22:00,
2013-05-05 06:23:00,33.8,32.8,30.23,ENE,58,2.7,3.6,96,0.00,,---,0.00,VWS V13.01,2013-05-05 11:23:00,
2013-05-05 06:24:00,33.8,32.8,30.23,ENE,58,0.0,3.1,96,0.00,,---,0.00,VWS V13.01,2013-05-05 11:24:00,
2013-05-05 06:25:00,33.8,32.8,30.23,ENE,58,0.0,0.0,96,0.00,,---,0.00,VWS V13.01,2013-05-05 11:25:00,
2013-05-05 06:26:00,33.8,32.8,30.23,ENE,58,0.0,0.0,96,0.00,,---,0.00,VWS V13.01,2013-05-05 11:26:00,
2013-05-05 06:27:00,33.8,32.8,30.23,ENE,58,0.0,0.0,96,0.00,,---,0.00,VWS V13.01,2013-05-05 11:27:00,
2013-05-05 06:28:00,33.8,32.8,30.23,ENE,61,3.6,6.0,96,0.00,,---,0.00,VWS V13.01,2013-05-05 11:28:00,
2013-05-05 06:29:00,33.8,32.8,30.23,NE,44,4.7,4.7,96,0.00,,---,0.00,VWS V13.01,2013-05-05 11:29:00,
2013-05-05 06:30:00,33.8,32.8,30.23,NE,54,2.7,4.7,96,0.00,,---,0.00,VWS V13.01,2013-05-05 11:30:00,
2013-05-05 06:31:00,33.8,32.8,30.23,NNE,25,5.6,5.6,96,0.00,,---,0.00,VWS V13.01,2013-05-05 11:31:00,
2013-05-05 06:32:00,33.8,32.8,30.23,NE,54,0.0,2.7,96,0.00,,---,0.00,VWS V13.01,2013-05-05 11:32:00,
2013-05-05 06:33:00,33.8,32.8,30.23,NNE,26,4.7,4.7,96,0.00,,---,0.00,VWS V13.01,2013-05-05 11:33:00,
2013-05-05 06:34:00,33.8,32.8,30.23,NNE,26,3.1,4.7,96,0.00,,---,0.00,VWS V13.01,2013-05-05 11:34:00,
2013-05-05 06:35:00,33.8,32.8,30.23,NNE,26,3.6,3.6,96,0.00,,---,0.00,VWS V13.01,2013-05-05 11:35:00,
2013-05-05 06:36:00,33.8,32.8,30.23,NE,47,3.6,4.5,96,0.00,,---,0.00,VWS V13.01,2013-05-05 11:36:00,
2013-05-05 06:37:00,33.8,32.8,30.23,ENE,60,3.6,3.6,96,0.00,,---,0.00,VWS V13.01,2013-05-05 11:37:00,
2013-05-05 06:38:00,33.8,32.8,30.23,NNE,33,2.7,4.5,96,0.00,,---,0.00,VWS V13.01,2013-05-05 11:38:00,
2013-05-05 06:39:00,33.8,32.8,30.23,NNE,31,4.5,4.5,96,0.00,,---,0.00,VWS V13.01,2013-05-05 11:39:00,
2013-05-05 06:40:00,33.8,32.8,30.23,NNE,31,4.0,4.5,96,0.00,,---,0.00,VWS V13.01,2013-05-05 11:40:00,
2013-05-05 06:41:00,33.8,32.8,30.23,NNE,31,0.0,4.5,96,0.00,,---,0.00,VWS V13.01,2013-05-05 11:41:00,
2013-05-05 06:42:00,33.8,32.8,30.23,NNE,31,4.0,4.5,96,0.00,,---,0.00,VWS V13.01,2013-05-05 11:42:00,
2013-05-05 06:43:00,33.8,33.0,30.23,NE,36,3.6,4.0,97,0.00,,---,0.00,VWS V13.01,2013-05-05 11:43:00,
2013-05-05 06:44:00,33.8,33.0,30.23,NE,36,2.7,3.6,97,0.00,,---,0.00,VWS V13.01,2013-05-05 11:44:00,
2013-05-05 06:45:00,33.8,33.0,30.23,NE,36,0.0,4.0,97,0.00,,---,0.00,VWS V13.01,2013-05-05 11:45:00,
2013-05-05 06:46:00,33.8,33.0,30.23,NE,36,0.0,2.7,97,0.00,,---,0.00,VWS V13.01,2013-05-05 11:46:00,
2013-05-05 06:47:00,33.8,33.0,30.23,NE,36,2.7,2.7,97,0.00,,---,0.00,VWS V13.01,2013-05-05 11:47:00,
2013-05-05 06:48:00,33.8,33.0,30.23,NE,36,0.0,4.0,97,0.00,,---,0.00,VWS V13.01,2013-05-05 11:48:00,
2013-05-05 06:49:00,33.8,33.0,30.23,NNE,24,4.0,4.5,97,0.00,,---,0.00,VWS V13.01,2013-05-05 11:49:00,
2013-05-05 06:50:00,33.8,33.0,30.23,ENE,72,3.6,4.0,97,0.00,,---,0.00,VWS V13.01,2013-05-05 11:50:00,
2013-05-05 06:51:00,33.8,33.0,30.23,NE,56,4.0,4.0,97,0.00,,---,0.00,VWS V13.01,2013-05-05 11:51:00,
2013-05-05 06:52:00,33.8,33.0,30.23,East,79,3.6,3.6,97,0.00,,---,0.00,VWS V13.01,2013-05-05 11:52:00,
2013-05-05 06:53:00,33.8,33.0,30.23,East,85,3.1,4.5,97,0.00,,---,0.00,VWS V13.01,2013-05-05 11:53:00,
2013-05-05 06:54:00,33.8,33.0,30.23,ENE,72,2.7,3.6,97,0.00,,---,0.00,VWS V13.01,2013-05-05 11:54:00,
2013-05-05 06:55:00,33.8,33.0,30.23,ENE,72,0.0,2.7,97,0.00,,---,0.00,VWS V13.01,2013-05-05 11:55:00,
2013-05-05 06:56:00,33.8,33.0,30.23,NNE,17,0.0,0.0,97,0.00,,---,0.00,VWS V13.01,2013-05-05 11:56:00,
2013-05-05 06:57:00,33.8,33.0,30.23,ENE,72,0.0,0.0,97,0.00,,---,0.00,VWS V13.01,2013-05-05 11:57:00,
2013-05-05 06:58:00,33.8,33.0,30.23,NE,50,4.5,4.5,97,0.00,,---,0.00,VWS V13.01,2013-05-05 11:58:00,
2013-05-05 06:59:00,34.0,33.2,30.23,NNE,31,5.1,5.1,97,0.00,,---,0.00,VWS V13.01,2013-05-05 11:59:00,
2013-05-05 07:00:00,33.8,33.0,30.23,NE,39,3.6,5.1,97,0.00,,---,0.00,VWS V13.01,2013-05-05 12:00:00,
2013-05-05 07:02:00,33.8,33.0,30.23,NE,39,3.6,5.1,97,0.00,,---,0.00,VWS V13.01,2013-05-05 12:02:00,
2013-05-05 07:07:00,33.8,33.0,30.23,NE,39,3.6,5.1,97,0.00,,---,0.00,VWS V13.01,2013-05-05 12:07:00,
2013-05-05 08:04:00,33.8,33.0,30.23,NE,39,3.6,5.1,97,0.00,,---,0.00,VWS V13.01,2013-05-05 13:04:00,
2013-05-05 08:39:00,34.9,34.1,30.23,NE,45,3.6,3.6,97,0.00,,---,0.00,VWS V13.01,2013-05-05 13:39:00,
2013-05-05 08:44:00,35.1,34.3,30.23,NE,39,3.6,3.6,97,0.00,,---,0.00,VWS V13.01,2013-05-05 13:44:00,
2013-05-05 08:49:00,35.4,34.7,30.23,NE,55,2.7,3.6,97,0.00,,---,0.00,VWS V13.01,2013-05-05 13:49:00,
2013-05-05 08:54:00,35.6,34.8,30.23,East,93,3.1,4.0,97,0.00,,---,0.00,VWS V13.01,2013-05-05 13:54:00,
2013-05-05 08:59:00,35.6,34.8,30.23,NE,44,3.1,5.1,97,0.00,,---,0.00,VWS V13.01,2013-05-05 13:59:00,
2013-05-05 09:04:00,35.4,34.7,30.23,East,84,0.0,2.7,97,0.00,,---,0.00,VWS V13.01,2013-05-05 14:04:00,
2013-05-05 09:09:00,35.6,34.8,30.23,ENE,63,0.0,0.0,97,0.00,,---,0.00,VWS V13.01,2013-05-05 14:09:00,
2013-05-05 09:14:00,35.6,34.8,30.23,ENE,67,4.7,4.7,97,0.00,,---,0.00,VWS V13.01,2013-05-05 14:14:00,
2013-05-05 09:19:00,35.6,34.8,30.23,East,81,3.1,3.1,97,0.00,,---,0.00,VWS V13.01,2013-05-05 14:19:00,
2013-05-05 09:24:00,35.8,35.0,30.23,NE,51,4.0,4.0,97,0.00,,---,0.00,VWS V13.01,2013-05-05 14:24:00,
2013-05-05 09:29:00,35.8,35.0,30.23,ENE,67,3.1,3.1,97,0.00,,---,0.00,VWS V13.01,2013-05-05 14:29:00,
2013-05-05 09:34:00,36.0,35.2,30.23,NE,45,3.6,4.5,97,0.00,,---,0.00,VWS V13.01,2013-05-05 14:34:00,
2013-05-05 09:39:00,36.1,35.4,30.23,East,81,4.0,4.0,97,0.00,,---,0.00,VWS V13.01,2013-05-05 14:39:00,
2013-05-05 09:44:00,36.3,35.5,30.23,North,11,3.6,4.7,97,0.00,,---,0.00,VWS V13.01,2013-05-05 14:44:00,
2013-05-05 09:49:00,36.1,35.4,30.23,East,87,3.1,4.5,97,0.00,,---,0.00,VWS V13.01,2013-05-05 14:49:00,
2013-05-05 09:54:00,36.3,35.5,30.23,ENE,70,3.1,4.5,97,0.00,,---,0.00,VWS V13.01,2013-05-05 14:54:00,
2013-05-05 09:59:00,36.3,35.5,30.23,East,96,5.1,5.1,97,0.00,,---,0.00,VWS V13.01,2013-05-05 14:59:00,
2013-05-05 10:04:00,36.3,35.5,30.23,ENE,61,3.6,4.5,97,0.00,,---,0.00,VWS V13.01,2013-05-05 15:04:00,
2013-05-05 10:09:00,36.3,35.5,30.23,ESE,110,0.0,4.0,97,0.00,,---,0.00,VWS V13.01,2013-05-05 15:09:00,
2013-05-05 10:14:00,36.3,35.5,30.23,ENE,63,4.0,4.0,97,0.00,,---,0.00,VWS V13.01,2013-05-05 15:14:00,
2013-05-05 10:19:00,36.3,35.5,30.23,NE,38,5.1,5.1,97,0.00,,---,0.00,VWS V13.01,2013-05-05 15:19:00,
2013-05-05 10:24:00,36.1,35.4,30.23,ENE,70,4.0,4.5,97,0.00,,---,0.00,VWS V13.01,2013-05-05 15:24:00,
2013-05-05 10:29:00,36.1,35.4,30.23,ENE,67,4.5,4.7,97,0.00,,---,0.00,VWS V13.01,2013-05-05 15:29:00,
2013-05-05 10:34:00,36.1,35.4,30.23,East,100,3.1,4.0,97,0.00,,---,0.00,VWS V13.01,2013-05-05 15:34:00,
2013-05-05 10:39:00,36.1,35.4,30.23,NNE,25,4.0,4.7,97,0.00,,---,0.00,VWS V13.01,2013-05-05 15:39:00,
2013-05-05 10:44:00,36.0,35.2,30.23,NE,37,3.1,4.7,97,0.00,,---,0.00,VWS V13.01,2013-05-05 15:44:00,
2013-05-05 10:49:00,36.0,35.2,30.23,East,81,4.0,4.0,97,0.00,,---,0.00,VWS V13.01,2013-05-05 15:49:00,
2013-05-05 10:54:00,36.1,35.4,30.23,ENE,77,4.5,4.5,97,0.00,,---,0.00,VWS V13.01,2013-05-05 15:54:00,
2013-05-05 10:59:00,36.3,35.5,30.23,ENE,68,0.0,4.7,97,0.00,,---,0.00,VWS V13.01,2013-05-05 15:59:00,
2013-05-05 11:05:00,36.5,35.7,30.23,SSW,198,3.1,3.1,97,0.00,,---,0.00,VWS V13.01,2013-05-05 16:05:00,
2013-05-05 11:10:00,36.9,36.1,30.23,NE,35,4.5,4.5,97,0.00,,---,0.00,VWS V13.01,2013-05-05 16:10:00,
2013-05-05 11:15:00,36.9,36.1,30.23,NE,42,4.0,4.5,97,0.00,,---,0.00,VWS V13.01,2013-05-05 16:15:00,
2013-05-05 11:20:00,36.7,35.9,30.23,NE,56,3.6,4.5,97,0.00,,---,0.00,VWS V13.01,2013-05-05 16:20:00,
2013-05-05 11:25:00,36.9,36.1,30.23,East,87,3.1,3.1,97,0.00,,---,0.00,VWS V13.01,2013-05-05 16:25:00,
2013-05-05 11:30:00,37.0,36.3,30.23,NE,48,4.5,4.5,97,0.00,,---,0.00,VWS V13.01,2013-05-05 16:30:00,
2013-05-05 11:35:00,37.4,36.6,30.23,North,9,0.0,0.0,97,0.00,,---,0.00,VWS V13.01,2013-05-05 16:35:00,
2013-05-05 11:40:00,37.6,36.8,30.23,East,79,4.5,4.5,97,0.00,,---,0.00,VWS V13.01,2013-05-05 16:40:00,
2013-05-05 11:45:00,37.6,36.8,30.23,NE,41,4.7,4.7,97,0.00,,---,0.00,VWS V13.01,2013-05-05 16:45:00,
2013-05-05 11:50:00,37.9,37.2,30.23,ENE,74,2.7,4.5,97,0.00,,---,0.00,VWS V13.01,2013-05-05 16:50:00,
2013-05-05 11:55:00,38.1,37.3,30.23,NNE,30,2.7,3.6,97,0.00,,---,0.00,VWS V13.01,2013-05-05 16:55:00,
2013-05-05 12:00:00,38.5,37.7,30.23,ESE,115,4.0,5.1,97,0.00,,---,0.00,VWS V13.01,2013-05-05 17:00:00,
2013-05-05 12:05:00,38.7,37.9,30.23,NNE,32,4.0,5.1,97,0.00,,---,0.00,VWS V13.01,2013-05-05 17:05:00,
2013-05-05 12:10:00,38.7,37.9,30.23,NE,41,4.5,4.5,97,0.00,,---,0.00,VWS V13.01,2013-05-05 17:10:00,
2013-05-05 12:15:00,38.7,37.9,30.23,East,87,3.6,3.6,97,0.00,,---,0.00,VWS V13.01,2013-05-05 17:15:00,
2013-05-05 12:20:00,38.7,37.9,30.23,NE,42,3.6,4.5,97,0.00,,---,0.00,VWS V13.01,2013-05-05 17:20:00,
2013-05-05 12:25:00,38.7,37.9,30.23,East,79,0.0,2.7,97,0.00,,---,0.00,VWS V13.01,2013-05-05 17:25:00,
2013-05-05 12:30:00,38.7,37.9,30.23,ESE,111,3.1,3.6,97,0.00,,---,0.00,VWS V13.01,2013-05-05 17:30:00,
2013-05-05 12:35:00,38.8,38.1,30.23,NE,51,3.6,3.6,97,0.00,,---,0.00,VWS V13.01,2013-05-05 17:35:00,
2013-05-05 12:40:00,38.8,38.1,30.23,East,100,3.1,4.5,97,0.00,,---,0.00,VWS V13.01,2013-05-05 17:40:00,
2013-05-05 12:45:00,39.0,38.2,30.23,South,181,3.1,5.1,97,0.00,,---,0.00,VWS V13.01,2013-05-05 17:45:00,
2013-05-05 12:50:00,39.0,38.2,30.23,East,85,3.6,3.6,97,0.00,,---,0.00,VWS V13.01,2013-05-05 17:50:00,
2013-05-05 12:55:00,39.0,38.0,30.23,East,99,3.6,4.5,96,0.00,,---,0.00,VWS V13.01,2013-05-05 17:55:00,
2013-05-05 13:00:00,39.2,38.2,30.23,East,96,4.5,4.5,96,0.00,,---,0.00,VWS V13.01,2013-05-05 18:00:00,
2013-05-05 13:05:00,39.4,38.3,30.23,NE,52,4.0,4.7,96,0.00,,---,0.00,VWS V13.01,2013-05-05 18:05:00,
2013-05-05 13:10:00,39.7,38.4,30.23,NE,44,4.0,4.5,95,0.00,,---,0.00,VWS V13.01,2013-05-05 18:10:00,
2013-05-05 13:16:00,39.9,38.3,30.20,East,83,3.1,3.1,94,0.00,,---,0.00,VWS V13.01,2013-05-05 18:16:00,
2013-05-05 13:21:00,40.5,38.0,30.20,ENE,76,3.1,3.1,91,0.00,,---,0.00,VWS V13.01,2013-05-05 18:21:00,
2013-05-05 13:25:00,41.0,37.1,30.20,East,85,3.6,4.0,86,0.00,,---,0.00,VWS V13.01,2013-05-05 18:25:00,
2013-05-05 13:31:00,41.2,34.8,30.20,East,85,0.0,4.0,78,0.00,,---,0.00,VWS V13.01,2013-05-05 18:31:00,
2013-05-05 13:36:00,42.1,33.7,30.20,East,83,0.0,0.0,72,0.00,,---,0.00,VWS V13.01,2013-05-05 18:36:00,
2013-05-05 13:41:00,42.8,32.2,30.20,ENE,66,2.7,4.5,66,0.00,,---,0.00,VWS V13.01,2013-05-05 18:41:00,
2013-05-05 13:46:00,43.3,30.4,30.20,NE,48,4.7,4.7,60,0.00,,---,0.00,VWS V13.01,2013-05-05 18:46:00,
2013-05-05 13:51:00,43.3,29.1,30.20,ENE,66,4.0,4.0,57,0.00,,---,0.00,VWS V13.01,2013-05-05 18:51:00,
2013-05-05 13:56:00,43.3,29.1,30.20,SE,127,4.5,4.5,57,0.00,,---,0.00,VWS V13.01,2013-05-05 18:56:00,
2013-05-05 14:01:00,43.5,28.9,30.20,NE,51,4.0,4.0,56,0.00,,---,0.00,VWS V13.01,2013-05-05 19:01:00,
2013-05-05 14:06:00,43.5,28.9,30.20,East,98,4.5,4.5,56,0.00,,---,0.00,VWS V13.01,2013-05-05 19:06:00,
2013-05-05 14:11:00,43.3,28.7,30.20,ENE,61,5.1,5.1,56,0.00,,---,0.00,VWS V13.01,2013-05-05 19:11:00,
2013-05-05 14:16:00,43.3,28.7,30.20,NE,41,2.7,2.7,56,0.00,,---,0.00,VWS V13.01,2013-05-05 19:16:00,
2013-05-05 14:21:00,43.3,28.7,30.20,ENE,69,3.6,4.0,56,0.00,,---,0.00,VWS V13.01,2013-05-05 19:21:00,
2013-05-05 14:26:00,43.2,28.5,30.20,East,92,2.7,4.0,56,0.00,,---,0.00,VWS V13.01,2013-05-05 19:26:00,
2013-05-05 14:31:00,43.3,28.7,30.20,NE,50,5.1,5.1,56,0.00,,---,0.00,VWS V13.01,2013-05-05 19:31:00,
2013-05-05 14:37:00,43.0,28.4,30.20,NE,44,2.7,3.1,56,0.00,,---,0.00,VWS V13.01,2013-05-05 19:37:00,
2013-05-05 14:42:00,43.0,28.8,30.20,ENE,63,4.0,4.5,57,0.00,,---,0.00,VWS V13.01,2013-05-05 19:42:00,
2013-05-05 14:47:00,43.0,28.8,30.20,East,98,2.7,3.1,57,0.00,,---,0.00,VWS V13.01,2013-05-05 19:47:00,
2013-05-05 14:52:00,43.3,28.7,30.20,East,80,3.1,4.7,56,0.00,,---,0.00,VWS V13.01,2013-05-05 19:52:00,
2013-05-05 14:57:00,43.2,28.5,30.20,ESE,114,0.0,2.7,56,0.00,,---,0.00,VWS V13.01,2013-05-05 19:57:00,
2013-05-05 15:02:00,43.0,28.4,30.20,East,85,0.0,4.0,56,0.00,,---,0.00,VWS V13.01,2013-05-05 20:02:00,
2013-05-05 15:07:00,43.3,28.7,30.20,ENE,70,4.0,4.5,56,0.00,,---,0.00,VWS V13.01,2013-05-05 20:07:00,
2013-05-05 15:12:00,43.5,28.4,30.20,ESE,108,3.1,3.6,55,0.00,,---,0.00,VWS V13.01,2013-05-05 20:12:00,
2013-05-05 15:17:00,43.7,28.2,30.20,ENE,77,4.5,4.5,54,0.00,,---,0.00,VWS V13.01,2013-05-05 20:17:00,
2013-05-05 15:22:00,43.7,28.2,30.20,NE,42,4.7,4.7,54,0.00,,---,0.00,VWS V13.01,2013-05-05 20:22:00,
2013-05-05 15:27:00,43.7,28.2,30.20,ENE,68,3.1,4.0,54,0.00,,---,0.00,VWS V13.01,2013-05-05 20:27:00,
2013-05-05 15:32:00,44.1,28.5,30.20,ESE,102,4.5,4.5,54,0.00,,---,0.00,VWS V13.01,2013-05-05 20:32:00,
2013-05-05 15:37:00,44.1,28.5,30.20,ESE,102,3.6,3.6,54,0.00,,---,0.00,VWS V13.01,2013-05-05 20:37:00,
2013-05-05 15:42:00,44.1,28.5,30.20,East,99,4.5,4.5,54,0.00,,---,0.00,VWS V13.01,2013-05-05 20:42:00,
2013-05-05 15:48:00,44.2,28.7,30.20,NNE,18,0.0,0.0,54,0.00,,---,0.00,VWS V13.01,2013-05-05 20:48:00,
2013-05-05 15:53:00,44.8,28.7,30.20,ESE,109,0.0,0.0,53,0.00,,---,0.00,VWS V13.01,2013-05-05 20:53:00,
2013-05-05 15:58:00,44.8,28.2,30.17,ESE,113,4.5,4.7,52,0.00,,---,0.00,VWS V13.01,2013-05-05 20:58:00,
2013-05-05 16:03:00,45.0,28.4,30.17,ENE,59,4.5,4.5,52,0.00,,---,0.00,VWS V13.01,2013-05-05 21:03:00,
2013-05-05 16:08:00,45.0,28.4,30.17,North,9,0.0,3.6,52,0.00,,---,0.00,VWS V13.01,2013-05-05 21:08:00,
2013-05-05 16:13:00,45.5,28.9,30.17,ENE,57,4.0,4.7,52,0.00,,---,0.00,VWS V13.01,2013-05-05 21:13:00,
2013-05-05 16:18:00,45.9,28.3,30.17,East,95,3.1,4.7,50,0.00,,---,0.00,VWS V13.01,2013-05-05 21:18:00,
2013-05-05 16:23:00,45.7,28.1,30.17,East,81,4.5,5.1,50,0.00,,---,0.00,VWS V13.01,2013-05-05 21:23:00,
2013-05-05 16:28:00,45.3,27.8,30.17,ESE,119,3.6,3.6,50,0.00,,---,0.00,VWS V13.01,2013-05-05 21:28:00,
2013-05-05 16:33:00,45.1,28.1,30.17,NE,51,0.0,4.0,51,0.00,,---,0.00,VWS V13.01,2013-05-05 21:33:00,
2013-05-05 16:38:00,45.3,28.3,30.17,ENE,65,3.6,3.6,51,0.00,,---,0.00,VWS V13.01,2013-05-05 21:38:00,
2013-05-05 16:43:00,45.5,28.4,30.17,ENE,72,3.6,3.6,51,0.00,,---,0.00,VWS V13.01,2013-05-05 21:43:00,
2013-05-05 16:48:00,45.3,28.3,30.17,NNE,16,0.0,0.0,51,0.00,,---,0.00,VWS V13.01,2013-05-05 21:48:00,
2013-05-05 16:53:00,45.3,28.3,30.17,ENE,58,4.0,4.0,51,0.00,,---,0.00,VWS V13.01,2013-05-05 21:53:00,
2013-05-05 16:58:00,45.1,27.6,30.17,ESE,116,0.0,2.7,50,0.00,,---,0.00,VWS V13.01,2013-05-05 21:58:00,
2013-05-05 17:03:00,44.8,27.8,30.17,East,88,4.5,4.5,51,0.00,,---,0.00,VWS V13.01,2013-05-05 22:03:00,
2013-05-05 17:08:00,44.6,27.6,30.17,East,99,0.0,0.0,51,0.00,,---,0.00,VWS V13.01,2013-05-05 22:08:00,
2013-05-05 17:14:00,44.2,27.7,30.17,ESE,106,0.0,0.0,52,0.00,,---,0.00,VWS V13.01,2013-05-05 22:14:00,
2013-05-05 17:19:00,44.2,27.7,30.17,East,89,2.7,4.0,52,0.00,,---,0.00,VWS V13.01,2013-05-05 22:19:00,
2013-05-05 17:24:00,44.1,27.6,30.17,SE,125,3.6,3.6,52,0.00,,---,0.00,VWS V13.01,2013-05-05 22:24:00,
2013-05-05 17:29:00,43.7,27.2,30.17,East,88,3.6,4.0,52,0.00,,---,0.00,VWS V13.01,2013-05-05 22:29:00,
2013-05-05 17:34:00,43.5,27.5,30.17,East,99,3.6,4.0,53,0.00,,---,0.00,VWS V13.01,2013-05-05 22:34:00,
2013-05-05 17:39:00,43.2,27.7,30.17,ESE,113,4.7,4.7,54,0.00,,---,0.00,VWS V13.01,2013-05-05 22:39:00,
2013-05-05 17:44:00,43.0,27.5,30.17,ENE,78,3.1,4.5,54,0.00,,---,0.00,VWS V13.01,2013-05-05 22:44:00,
2013-05-05 17:49:00,43.0,27.5,30.17,ENE,60,3.1,4.0,54,0.00,,---,0.00,VWS V13.01,2013-05-05 22:49:00,
2013-05-05 17:54:00,42.8,27.3,30.17,East,94,2.7,3.1,54,0.00,,---,0.00,VWS V13.01,2013-05-05 22:54:00,
2013-05-05 17:59:00,42.4,27.4,30.17,ESE,109,0.0,0.0,55,0.00,,---,0.00,VWS V13.01,2013-05-05 22:59:00,
2013-05-05 18:04:00,42.3,27.7,30.17,East,94,0.0,0.0,56,0.00,,---,0.00,VWS V13.01,2013-05-05 23:04:00,
2013-05-05 18:09:00,42.1,27.5,30.17,ESE,114,0.0,0.0,56,0.00,,---,0.00,VWS V13.01,2013-05-05 23:09:00,
2013-05-05 18:14:00,41.9,27.8,30.17,East,95,0.0,3.1,57,0.00,,---,0.00,VWS V13.01,2013-05-05 23:14:00,
2013-05-05 18:19:00,41.5,27.9,30.17,ENE,77,4.0,4.0,58,0.00,,---,0.00,VWS V13.01,2013-05-05 23:19:00,
2013-05-05 18:24:00,41.4,28.1,30.17,East,86,0.0,0.0,59,0.00,,---,0.00,VWS V13.01,2013-05-05 23:24:00,
2013-05-05 18:29:00,41.2,28.4,30.17,East,86,0.0,0.0,60,0.00,,---,0.00,VWS V13.01,2013-05-05 23:29:00,
2013-05-05 18:34:00,41.0,28.2,30.17,East,91,0.0,0.0,60,0.00,,---,0.00,VWS V13.01,2013-05-05 23:34:00,
2013-05-05 18:39:00,41.0,28.6,30.17,East,86,0.0,0.0,61,0.00,,---,0.00,VWS V13.01,2013-05-05 23:39:00,
2013-05-05 18:45:00,40.8,28.8,30.17,ESE,105,0.0,0.0,62,0.00,,---,0.00,VWS V13.01,2013-05-05 23:45:00,
2013-05-05 18:50:00,40.6,28.6,30.17,NE,47,0.0,0.0,62,0.00,,---,0.00,VWS V13.01,2013-05-05 23:50:00,
2013-05-05 18:55:00,40.6,29.0,30.17,NE,53,0.0,0.0,63,0.00,,---,0.00,VWS V13.01,2013-05-05 23:55:00,
2013-05-05 19:00:00,40.5,28.9,30.14,NE,55,3.6,3.6,63,0.00,,---,0.00,VWS V13.01,2013-05-06 00:00:00,
2013-05-05 19:05:00,40.3,28.7,30.14,East,80,0.0,0.0,63,0.00,,---,0.00,VWS V13.01,2013-05-06 00:05:00,
2013-05-05 19:10:00,40.3,29.1,30.14,NNE,33,0.0,0.0,64,0.00,,---,0.00,VWS V13.01,2013-05-06 00:10:00,
2013-05-05 19:15:00,40.3,29.1,30.17,NE,34,0.0,0.0,64,0.00,,---,0.00,VWS V13.01,2013-05-06 00:15:00,
2013-05-05 19:20:00,40.3,29.1,30.17,NNE,33,0.0,0.0,64,0.00,,---,0.00,VWS V13.01,2013-05-06 00:20:00,
2013-05-05 19:25:00,40.3,29.1,30.17,NNE,33,0.0,0.0,64,0.00,,---,0.00,VWS V13.01,2013-05-06 00:25:00,
2013-05-05 19:30:00,40.3,29.1,30.14,NE,34,0.0,0.0,64,0.00,,---,0.00,VWS V13.01,2013-05-06 00:30:00,
2013-05-05 19:36:00,40.3,29.1,30.14,NE,34,0.0,0.0,64,0.00,,---,0.00,VWS V13.01,2013-05-06 00:36:00,
2013-05-05 19:41:00,40.1,28.9,30.14,NNE,33,0.0,0.0,64,0.00,,---,0.00,VWS V13.01,2013-05-06 00:41:00,
2013-05-05 19:46:00,40.1,28.9,30.14,NNE,33,0.0,0.0,64,0.00,,---,0.00,VWS V13.01,2013-05-06 00:46:00,
2013-05-05 19:51:00,40.1,28.9,30.14,NE,34,0.0,0.0,64,0.00,,---,0.00,VWS V13.01,2013-05-06 00:51:00,
2013-05-05 19:56:00,39.9,28.8,30.14,NE,34,0.0,0.0,64,0.00,,---,0.00,VWS V13.01,2013-05-06 00:56:00,
2013-05-05 20:01:00,39.9,28.8,30.17,NE,34,0.0,0.0,64,0.00,,---,0.00,VWS V13.01,2013-05-06 01:01:00,
2013-05-05 20:06:00,39.9,29.1,30.17,NE,34,0.0,0.0,65,0.00,,---,0.00,VWS V13.01,2013-05-06 01:06:00,
2013-05-05 20:11:00,39.7,29.0,30.17,East,83,0.0,0.0,65,0.00,,---,0.00,VWS V13.01,2013-05-06 01:11:00,
2013-05-05 20:16:00,39.6,29.1,30.17,East,83,0.0,0.0,66,0.00,,---,0.00,VWS V13.01,2013-05-06 01:16:00,
2013-05-05 20:21:00,39.4,29.0,30.17,East,83,0.0,0.0,66,0.00,,---,0.00,VWS V13.01,2013-05-06 01:21:00,
2013-05-05 20:26:00,39.2,28.8,30.17,East,83,0.0,0.0,66,0.00,,---,0.00,VWS V13.01,2013-05-06 01:26:00,
2013-05-05 20:31:00,39.0,29.0,30.17,East,83,0.0,0.0,67,0.00,,---,0.00,VWS V13.01,2013-05-06 01:31:00,
2013-05-05 20:36:00,38.8,28.8,30.17,East,83,0.0,0.0,67,0.00,,---,0.00,VWS V13.01,2013-05-06 01:36:00,
2013-05-05 20:41:00,38.7,29.0,30.17,East,83,0.0,0.0,68,0.00,,---,0.00,VWS V13.01,2013-05-06 01:41:00,
2013-05-05 20:46:00,38.5,28.9,30.17,East,83,0.0,0.0,68,0.00,,---,0.00,VWS V13.01,2013-05-06 01:46:00,
2013-05-05 20:51:00,38.3,28.7,30.17,East,83,0.0,0.0,68,0.00,,---,0.00,VWS V13.01,2013-05-06 01:51:00,
2013-05-05 20:56:00,38.1,28.5,30.17,East,83,0.0,0.0,68,0.00,,---,0.00,VWS V13.01,2013-05-06 01:56:00,
2013-05-05 21:01:00,38.1,28.9,30.17,East,83,0.0,0.0,69,0.00,,---,0.00,VWS V13.01,2013-05-06 02:01:00,
2013-05-05 21:06:00,37.8,28.5,30.17,East,83,0.0,0.0,69,0.00,,---,0.00,VWS V13.01,2013-05-06 02:06:00,
2013-05-05 21:11:00,37.6,28.4,30.17,East,83,0.0,0.0,69,0.00,,---,0.00,VWS V13.01,2013-05-06 02:11:00,
2013-05-05 21:16:00,37.4,28.2,30.17,East,83,0.0,0.0,69,0.00,,---,0.00,VWS V13.01,2013-05-06 02:16:00,
2013-05-05 21:21:00,37.2,28.4,30.17,East,83,0.0,0.0,70,0.00,,---,0.00,VWS V13.01,2013-05-06 02:21:00,
2013-05-05 21:26:00,37.0,28.5,30.17,East,83,0.0,0.0,71,0.00,,---,0.00,VWS V13.01,2013-05-06 02:26:00,
2013-05-05 21:31:00,36.9,28.4,30.17,East,83,0.0,0.0,71,0.00,,---,0.00,VWS V13.01,2013-05-06 02:31:00,
2013-05-05 21:36:00,36.7,28.2,30.17,East,83,0.0,0.0,71,0.00,,---,0.00,VWS V13.01,2013-05-06 02:36:00,
2013-05-05 21:41:00,36.3,27.8,30.17,East,83,0.0,0.0,71,0.00,,---,0.00,VWS V13.01,2013-05-06 02:41:00,
2013-05-05 21:46:00,36.1,28.0,30.17,East,83,0.0,0.0,72,0.00,,---,0.00,VWS V13.01,2013-05-06 02:46:00,
2013-05-05 21:51:00,36.0,27.8,30.17,East,83,0.0,0.0,72,0.00,,---,0.00,VWS V13.01,2013-05-06 02:51:00,
2013-05-05 21:56:00,35.8,28.0,30.17,East,83,0.0,0.0,73,0.00,,---,0.00,VWS V13.01,2013-05-06 02:56:00,
2013-05-05 22:01:00,35.8,28.0,30.17,East,83,0.0,0.0,73,0.00,,---,0.00,VWS V13.01,2013-05-06 03:01:00,
2013-05-05 22:06:00,35.6,27.8,30.17,East,83,0.0,0.0,73,0.00,,---,0.00,VWS V13.01,2013-05-06 03:06:00,
2013-05-05 22:11:00,35.4,28.0,30.17,East,83,0.0,0.0,74,0.00,,---,0.00,VWS V13.01,2013-05-06 03:11:00,
2013-05-05 22:16:00,35.4,28.3,30.17,East,83,0.0,0.0,75,0.00,,---,0.00,VWS V13.01,2013-05-06 03:16:00,
2013-05-05 22:21:00,35.4,28.3,30.17,East,83,0.0,0.0,75,0.00,,---,0.00,VWS V13.01,2013-05-06 03:21:00,
2013-05-05 22:26:00,35.2,28.5,30.17,East,83,0.0,0.0,76,0.00,,---,0.00,VWS V13.01,2013-05-06 03:26:00,
2013-05-05 22:31:00,35.1,28.3,30.17,East,83,0.0,0.0,76,0.00,,---,0.00,VWS V13.01,2013-05-06 03:31:00,
2013-05-05 22:36:00,34.7,27.9,30.17,East,83,0.0,0.0,76,0.00,,---,0.00,VWS V13.01,2013-05-06 03:36:00,
2013-05-05 22:41:00,34.5,27.8,30.17,East,83,0.0,0.0,76,0.00,,---,0.00,VWS V13.01,2013-05-06 03:41:00,
2013-05-05 22:46:00,34.3,27.6,30.14,East,83,0.0,0.0,76,0.00,,---,0.00,VWS V13.01,2013-05-06 03:46:00,
2013-05-05 22:51:00,34.2,27.7,30.14,East,83,0.0,0.0,77,0.00,,---,0.00,VWS V13.01,2013-05-06 03:51:00,
2013-05-05 22:57:00,34.0,27.5,30.14,East,83,0.0,0.0,77,0.00,,---,0.00,VWS V13.01,2013-05-06 03:57:00,
2013-05-05 23:01:00,33.8,27.4,30.14,East,83,0.0,0.0,77,0.00,,---,0.00,VWS V13.01,2013-05-06 04:01:00,
2013-05-05 23:02:00,33.8,27.4,30.14,East,83,0.0,0.0,77,0.00,,---,0.00,VWS V13.01,2013-05-06 04:02:00,
2013-05-05 23:08:00,33.6,27.5,30.14,East,83,0.0,0.0,78,0.00,,---,0.00,VWS V13.01,2013-05-06 04:08:00,
2013-05-05 23:12:00,33.4,27.3,30.17,East,83,0.0,0.0,78,0.00,,---,0.00,VWS V13.01,2013-05-06 04:12:00,
2013-05-05 23:18:00,33.3,27.1,30.17,East,83,0.0,0.0,78,0.00,,---,0.00,VWS V13.01,2013-05-06 04:18:00,
2013-05-05 23:23:00,33.3,27.1,30.17,East,83,0.0,0.0,78,0.00,,---,0.00,VWS V13.01,2013-05-06 04:23:00,
2013-05-05 23:28:00,33.3,27.5,30.14,East,83,0.0,0.0,79,0.00,,---,0.00,VWS V13.01,2013-05-06 04:28:00,
2013-05-05 23:33:00,33.3,27.5,30.14,East,83,0.0,0.0,79,0.00,,---,0.00,VWS V13.01,2013-05-06 04:33:00,
2013-05-05 23:38:00,33.3,27.5,30.14,East,83,0.0,0.0,79,0.00,,---,0.00,VWS V13.01,2013-05-06 04:38:00,
2013-05-05 23:43:00,33.3,27.5,30.14,East,83,0.0,0.0,79,0.00,,---,0.00,VWS V13.01,2013-05-06 04:43:00,
2013-05-05 23:48:00,33.1,27.3,30.14,East,83,0.0,0.0,79,0.00,,---,0.00,VWS V13.01,2013-05-06 04:48:00,
2013-05-05 23:53:00,32.9,27.1,30.14,East,83,0.0,0.0,79,0.00,,---,0.00,VWS V13.01,2013-05-06 04:53:00,
2013-05-05 23:58:00,32.9,27.1,30.14,East,83,0.0,0.0,79,0.00,,---,0.00,VWS V13.01,2013-05-06 04:58:00,